M I D A S
Marine Information and Data Acquisition System
Tripno 1503 of the Zeeleeuw from 2008-06-13 04:43:49 to 2008-06-13 13:35:45
Back to CruiseResearch ActivitiesStationsMapUnderway DataData graphs

EquipmentUnitsComment
TimeDGPSUTC
LatitudeDGPSDM.mWGS84
LongitudeDGPSDM.mWGS84
TemperatureSBE03/SBE38deg celciusITS90
ConductivitySBE21S/mITS90
SalinitySBE21 Practical Salinity Units
ChlorophylAChelsea fluorimeterg/lCalibrated in Aceton
Missing or incorrect values are displayed as -999
Sea surface data collected by the RV Zeeleeuw from 2008-06-13 04:12:45 to 2008-06-13 13:36:31
                                                                                    Next 1000 lines
Time Latitude Longitude Temperature Conductivity Salinity ChlorophylA
2008-06-13 04:12:55 51°13.623 2°56.044 20.1845 0.276777 1.729302 -1.697049
2008-06-13 04:12:59 51°13.623 2°56.042 20.1703 0.275953 1.723863 -1.697049
2008-06-13 04:13:05 51°13.625 2°56.037 20.1691 0.275541 1.721143 -1.697049
2008-06-13 04:13:09 51°13.626 2°56.034 20.1672 0.276159 1.725256 -1.697049
2008-06-13 04:13:15 51°13.627 2°56.029 20.1627 0.276159 1.725256 -1.697049
2008-06-13 04:13:19 51°13.628 2°56.025 20.164 0.276056 1.724577 -1.697049
2008-06-13 04:13:25 51°13.63 2°56.019 20.1674 0.276262 1.725971 -1.731873
2008-06-13 04:13:29 51°13.631 2°56.014 20.1683 0.276159 1.725291 -1.697049
2008-06-13 04:13:35 51°13.634 2°56.007 20.1685 0.276056 1.724611 -1.697049
2008-06-13 04:13:39 51°13.635 2°56.002 20.1695 0.276056 1.724611 -1.697049
2008-06-13 04:13:45 51°13.638 2°55.994 20.1698 0.276056 1.724611 -1.697049
2008-06-13 04:13:50 51°13.64 2°55.986 20.1714 0.275438 1.720566 -1.697049
2008-06-13 04:13:55 51°13.642 2°55.978 20.173 0.27585 1.723285 -1.697049
2008-06-13 04:13:59 51°13.644 2°55.972 20.1748 0.275335 1.71992 -1.697049
2008-06-13 04:14:05 51°13.647 2°55.961 20.1753 0.275232 1.71924 -1.697049
2008-06-13 04:14:09 51°13.648 2°55.954 20.177 0.275027 1.717915 -1.697049
2008-06-13 04:14:15 51°13.651 2°55.943 20.1772 0.275027 1.717915 -1.697049
2008-06-13 04:14:19 51°13.652 2°55.936 20.1782 0.274821 1.716556 -1.697049
2008-06-13 04:14:25 51°13.655 2°55.925 20.1795 0.274615 1.71523 -1.697049
2008-06-13 04:14:29 51°13.657 2°55.917 20.1874 0.274512 1.714551 -1.697049
2008-06-13 04:14:35 51°13.659 2°55.906 20.1987 0.274306 1.713225 -1.697049
2008-06-13 04:14:39 51°13.661 2°55.898 20.2123 0.273997 1.711186 -1.697049
2008-06-13 04:14:45 51°13.664 2°55.887 20.2171 0.273997 1.711186 -1.697049
2008-06-13 04:14:49 51°13.666 2°55.88 20.2173 0.274718 1.715944 -1.697049
2008-06-13 04:14:55 51°13.669 2°55.869 20.2185 0.274306 1.713225 -1.697049
2008-06-13 04:14:59 51°13.671 2°55.862 20.2162 0.274718 1.715978 -1.697049
2008-06-13 04:15:04 51°13.674 2°55.853 20.2114 0.27585 1.72349 -1.697049
2008-06-13 04:15:09 51°13.676 2°55.843 20.2108 0.275953 1.72417 -1.697049
2008-06-13 04:15:15 51°13.679 2°55.832 20.21 0.275953 1.72417 -1.697049
2008-06-13 04:15:19 51°13.681 2°55.824 20.21 0.275953 1.724205 -1.697049
2008-06-13 04:15:25 51°13.684 2°55.813 20.2102 0.27585 1.723525 -1.697049
2008-06-13 04:15:29 51°13.686 2°55.805 20.2124 0.275232 1.719479 -1.697049
2008-06-13 04:15:35 51°13.69 2°55.794 20.236 0.272659 1.702488 -1.697049
2008-06-13 04:15:39 51°13.692 2°55.786 20.2528 0.271629 1.695695 -1.697049
2008-06-13 04:15:45 51°13.694 2°55.776 20.2539 0.271629 1.695695 -1.697049
2008-06-13 04:15:49 51°13.696 2°55.77 20.2558 0.271423 1.69437 -1.697049
2008-06-13 04:15:55 51°13.698 2°55.762 20.2509 0.271012 1.691654 -1.697049
2008-06-13 04:15:59 51°13.699 2°55.758 20.2498 0.268953 1.678075 -1.697049
2008-06-13 04:16:03 51°13.699 2°55.756 20.2633 0.268438 1.674681 -1.697049
2008-06-13 04:16:09 51°13.7 2°55.755 20.2647 0.268129 1.672645 -1.697049
2008-06-13 04:16:15 51°13.7 2°55.757 20.26 0.268129 1.672645 -1.697049
2008-06-13 04:16:19 51°13.699 2°55.758 20.2596 0.271218 1.693046 -1.697049
2008-06-13 04:16:23 51°13.7 2°55.759 20.2462 0.273071 1.705375 -1.697049
2008-06-13 04:16:29 51°13.699 2°55.76 20.2468 0.274615 1.715605 -1.697049
2008-06-13 04:16:35 51°13.699 2°55.76 20.2172 0.277188 1.732675 -1.697049
2008-06-13 04:16:39 51°13.699 2°55.758 20.2044 0.275541 1.721792 -1.697049
2008-06-13 04:16:43 51°13.699 2°55.757 20.1957 0.275541 1.721792 -1.697049
2008-06-13 04:16:49 51°13.698 2°55.753 20.1919 0.275747 1.723187 -1.697049
2008-06-13 04:16:55 51°13.698 2°55.748 20.1775 0.275747 1.723152 -1.697049
2008-06-13 04:16:59 51°13.697 2°55.745 20.1873 0.274306 1.713633 -1.697049
2008-06-13 04:17:05 51°13.697 2°55.74 20.2061 0.273174 1.706156 -1.697049
2008-06-13 04:17:09 51°13.696 2°55.737 20.2171 0.271732 1.69661 -1.697049
2008-06-13 04:17:15 51°13.695 2°55.733 20.225 0.271732 1.69661 -1.697049
2008-06-13 04:17:19 51°13.695 2°55.731 20.2368 0.271115 1.692534 -1.697049
2008-06-13 04:17:25 51°13.694 2°55.73 20.2451 0.268747 1.676917 -1.697049
2008-06-13 04:17:30 51°13.695 2°55.731 20.2541 0.269056 1.678954 -1.697049
2008-06-13 04:17:35 51°13.696 2°55.734 20.2575 0.268953 1.678275 -1.697049
2008-06-13 04:17:39 51°13.697 2°55.736 20.2662 0.26885 1.677662 -1.697049
2008-06-13 04:17:45 51°13.699 2°55.74 20.2696 0.26885 1.677662 -1.697049
2008-06-13 04:17:49 51°13.7 2°55.742 20.2489 0.271526 1.695386 -1.697049
2008-06-13 04:17:55 51°13.702 2°55.745 20.2471 0.273894 1.711084 -1.697049
2008-06-13 04:17:59 51°13.702 2°55.746 20.237 0.275541 1.721997 -1.697049
2008-06-13 04:18:03 51°13.703 2°55.747 20.2332 0.275438 1.721351 -1.697049
2008-06-13 04:18:09 51°13.702 2°55.747 20.2173 0.275644 1.722677 -1.697049
2008-06-13 04:18:15 51°13.7 2°55.747 20.214 0.275644 1.722677 -1.697049
2008-06-13 04:18:19 51°13.699 2°55.746 20.2084 0.275953 1.724718 -1.697049
2008-06-13 04:18:23 51°13.697 2°55.745 20.2041 0.275644 1.722677 -1.697049
2008-06-13 04:18:29 51°13.694 2°55.743 20.1954 0.274306 1.713803 -1.697049
2008-06-13 04:18:35 51°13.691 2°55.741 20.201 0.272247 1.700176 -1.697049
2008-06-13 04:18:39 51°13.689 2°55.74 20.2023 0.272144 1.699496 -1.697049
2008-06-13 04:18:45 51°13.686 2°55.738 20.2079 0.272144 1.699496 -1.697049
2008-06-13 04:18:49 51°13.685 2°55.737 20.2169 0.270291 1.687235 -1.697049
2008-06-13 04:18:55 51°13.685 2°55.738 20.2335 0.268335 1.674335 -1.697049
2008-06-13 04:18:59 51°13.686 2°55.738 20.2505 0.268129 1.672977 -1.697049
2008-06-13 04:19:05 51°13.688 2°55.739 20.2617 0.267923 1.671653 -1.697049
2008-06-13 04:19:09 51°13.691 2°55.739 20.2732 0.266791 1.664221 -1.697049
2008-06-13 04:19:15 51°13.696 2°55.738 20.2787 0.266791 1.664221 -1.697049
2008-06-13 04:19:19 51°13.699 2°55.737 20.2798 0.269056 1.67922 -1.697049
2008-06-13 04:19:25 51°13.705 2°55.734 20.2749 0.270394 1.688149 -1.697049
2008-06-13 04:19:29 51°13.708 2°55.732 20.2749 0.267512 1.66917 -1.697049
2008-06-13 04:19:35 51°13.714 2°55.728 20.271 0.26885 1.678029 -1.697049
2008-06-13 04:19:39 51°13.719 2°55.724 20.2616 0.268747 1.67735 -1.697049
2008-06-13 04:19:45 51°13.726 2°55.719 20.2596 0.268747 1.67735 -1.697049
2008-06-13 04:19:49 51°13.731 2°55.714 20.2374 0.269056 1.679387 -1.697049
2008-06-13 04:19:55 51°13.739 2°55.708 20.1969 0.270085 1.686178 -1.697049
2008-06-13 04:19:59 51°13.745 2°55.703 20.1876 0.269879 1.684786 -1.697049
2008-06-13 04:20:05 51°13.754 2°55.695 20.1894 0.269262 1.680678 -1.697049
2008-06-13 04:20:09 51°13.76 2°55.69 20.1869 0.269982 1.685465 -1.697049
2008-06-13 04:20:15 51°13.77 2°55.682 20.1704 0.269982 1.685465 -1.697049
2008-06-13 04:20:19 51°13.776 2°55.677 20.1668 0.270497 1.688828 -1.697049
2008-06-13 04:20:25 51°13.787 2°55.669 20.1709 0.270703 1.690187 -1.697049
2008-06-13 04:20:29 51°13.793 2°55.663 20.1752 0.270085 1.686111 -1.697049
2008-06-13 04:20:35 51°13.804 2°55.654 20.1753 0.2706 1.689541 -1.697049
2008-06-13 04:20:39 51°13.811 2°55.648 20.1765 0.2706 1.689574 -1.697049
2008-06-13 04:20:43 51°13.818 2°55.643 20.1736 0.2706 1.689574 -1.697049
2008-06-13 04:20:49 51°13.829 2°55.634 20.1652 0.270291 1.687536 -1.697049
2008-06-13 04:20:55 51°13.84 2°55.625 20.1699 0.271115 1.693005 -1.697049
2008-06-13 04:20:59 51°13.848 2°55.619 20.1756 0.271012 1.692359 -1.697049
2008-06-13 04:21:03 51°13.855 2°55.613 20.1855 0.270291 1.687603 -1.697049
2008-06-13 04:21:09 51°13.866 2°55.604 20.1933 0.2706 1.689675 -1.697049
2008-06-13 04:21:15 51°13.877 2°55.595 20.2106 0.2706 1.689675 -1.697049
2008-06-13 04:21:19 51°13.885 2°55.589 20.2345 0.269262 1.680878 -1.697049
2008-06-13 04:21:25 51°13.897 2°55.579 20.2195 0.269776 1.684274 -1.697049
2008-06-13 04:21:29 51°13.905 2°55.574 20.2076 0.269571 1.682949 -1.697049
2008-06-13 04:21:35 51°13.917 2°55.564 20.2291 0.268129 1.673475 -1.697049
2008-06-13 04:21:39 51°13.926 2°55.557 20.2349 0.269056 1.67962 -1.697049
2008-06-13 04:21:43 51°13.935 2°55.551 20.2226 0.269056 1.67962 -1.697049
2008-06-13 04:21:49 51°13.949 2°55.541 20.2241 0.269468 1.682337 -1.697049
2008-06-13 04:21:55 51°13.963 2°55.53 20.2408 0.266894 1.665428 -1.697049
2008-06-13 04:21:59 51°13.972 2°55.523 20.2298 0.268541 1.676291 -1.697049
2008-06-13 04:22:05 51°13.986 2°55.512 20.2271 0.269571 1.683116 -1.697049
2008-06-13 04:22:09 51°13.996 2°55.505 20.2285 0.267306 1.66821 -1.697049
2008-06-13 04:22:15 51°14.01 2°55.494 20.2249 0.267306 1.66821 -1.697049
2008-06-13 04:22:19 51°14.02 2°55.488 20.2147 0.271115 1.693374 -1.697049
2008-06-13 04:22:25 51°14.035 2°55.477 20.2028 0.268644 1.67707 -1.697049
2008-06-13 04:22:29 51°14.044 2°55.47 20.2237 0.268747 1.677749 -1.697049
2008-06-13 04:22:35 51°14.059 2°55.458 20.2088 0.269571 1.683216 -1.697049
2008-06-13 04:22:39 51°14.069 2°55.451 20.1993 0.269056 1.67982 -1.697049
2008-06-13 04:22:43 51°14.079 2°55.444 20.1971 0.269056 1.67982 -1.697049
2008-06-13 04:22:49 51°14.094 2°55.433 20.1957 0.270085 1.686647 -1.697049
2008-06-13 04:22:55 51°14.108 2°55.421 20.1811 0.269776 1.684609 -1.697049
2008-06-13 04:22:59 51°14.118 2°55.413 20.1906 0.270291 1.688039 -1.697049
2008-06-13 04:23:03 51°14.128 2°55.405 20.2196 0.268953 1.679208 -1.697049
2008-06-13 04:23:09 51°14.142 2°55.392 20.22 0.267923 1.67245 -1.697049
2008-06-13 04:23:15 51°14.156 2°55.38 20.1816 0.267923 1.67245 -1.697049
2008-06-13 04:23:19 51°14.166 2°55.371 20.204 0.269468 1.682637 -1.697049
2008-06-13 04:23:25 51°14.18 2°55.358 20.175 0.269879 1.685388 -1.697049
2008-06-13 04:23:29 51°14.19 2°55.348 20.229 0.2671 1.667051 -1.697049
2008-06-13 04:23:35 51°14.204 2°55.332 20.2309 0.270085 1.686781 -1.697049
2008-06-13 04:23:39 51°14.213 2°55.322 20.2269 0.266173 1.661007 -1.697049
2008-06-13 04:23:45 51°14.227 2°55.304 20.2302 0.266173 1.661007 -1.697049
2008-06-13 04:23:49 51°14.236 2°55.292 20.2237 0.266173 1.661007 -1.697049
2008-06-13 04:23:55 51°14.249 2°55.272 20.2205 0.264423 1.649504 -1.697049
2008-06-13 04:23:59 51°14.258 2°55.258 20.2272 0.269468 1.682771 -1.697049
2008-06-13 04:24:05 51°14.27 2°55.236 20.2371 0.263703 1.644787 -1.697049
2008-06-13 04:24:09 51°14.279 2°55.222 20.19 0.265659 1.657679 -1.697049
2008-06-13 04:24:15 51°14.291 2°55.199 20.2164 0.265659 1.657679 -1.697049
2008-06-13 04:24:19 51°14.299 2°55.184 20.2116 0.263909 1.646177 -1.697049
2008-06-13 04:24:25 51°14.312 2°55.161 20.1735 0.264938 1.652995 -1.697049
2008-06-13 04:24:30 51°14.323 2°55.143 20.1759 0.2671 1.667216 -1.697049
2008-06-13 04:24:35 51°14.334 2°55.125 20.1919 0.269159 1.6808 -1.697049
2008-06-13 04:24:39 51°14.343 2°55.109 20.133 0.261232 1.628577 -1.697049
2008-06-13 04:24:45 51°14.355 2°55.087 20.1884 0.261232 1.628577 -1.697049
2008-06-13 04:24:50 51°14.366 2°55.068 20.1879 0.263394 1.642818 -1.697049
2008-06-13 04:24:55 51°14.377 2°55.051 20.1397 0.268644 1.677436 -1.697049
2008-06-13 04:24:59 51°14.387 2°55.037 20.1975 0.269673 1.68423 -1.697049
2008-06-13 04:25:03 51°14.396 2°55.022 20.186 0.26535 1.655742 -1.697049
2008-06-13 04:25:10 51°14.412 2°54.997 20.1909 0.269468 1.682938 -1.697049
2008-06-13 04:25:15 51°14.423 2°54.978 20.1782 0.269468 1.682938 -1.697049
2008-06-13 04:25:19 51°14.432 2°54.964 20.1743 0.277909 1.73868 -1.697049
2008-06-13 04:25:24 51°14.445 2°54.945 20.1733 0.274512 1.716219 -1.697049
2008-06-13 04:25:30 51°14.459 2°54.923 20.1699 0.266379 1.662563 -1.697049
2008-06-13 04:25:35 51°14.471 2°54.906 20.1751 0.2706 1.690413 -1.697049
2008-06-13 04:25:39 51°14.481 2°54.892 20.1645 0.274821 1.718294 -1.697049
2008-06-13 04:25:43 51°14.491 2°54.878 20.1835 0.274821 1.718294 -1.697049
2008-06-13 04:25:49 51°14.505 2°54.856 20.1982 0.262776 1.638846 -1.697049
2008-06-13 04:25:55 51°14.518 2°54.833 20.1482 0.253306 1.576558 -1.697049
2008-06-13 04:25:59 51°14.527 2°54.818 20.1786 0.280174 1.753804 -1.697049
2008-06-13 04:26:05 51°14.541 2°54.796 20.1895 0.264629 1.65109 -1.697049
2008-06-13 04:26:10 51°14.552 2°54.777 20.1787 0.268438 1.676211 -1.697049
2008-06-13 04:26:15 51°14.563 2°54.758 20.1767 0.268438 1.676211 -1.697049
2008-06-13 04:26:19 51°14.572 2°54.742 20.1615 0.270806 1.69184 -1.697049
2008-06-13 04:26:25 51°14.583 2°54.717 20.196 0.268747 1.678282 -1.697049
2008-06-13 04:26:30 51°14.592 2°54.696 20.1856 0.275027 1.719792 -1.697049
2008-06-13 04:26:35 51°14.602 2°54.674 20.1797 0.274718 1.71775 -1.697049
2008-06-13 04:26:39 51°14.609 2°54.656 20.1387 0.25835 1.609826 -1.697049
2008-06-13 04:26:45 51°14.62 2°54.63 20.1786 0.25835 1.609826 -1.697049
2008-06-13 04:26:49 51°14.627 2°54.613 20.1526 0.270806 1.691974 -1.697049
2008-06-13 04:26:55 51°14.638 2°54.588 20.1775 0.292527 1.835844 -1.697049
2008-06-13 04:26:59 51°14.645 2°54.571 20.1729 0.278527 1.743008 -1.697049
2008-06-13 04:27:05 51°14.657 2°54.545 20.1659 0.284086 1.779745 -1.697049
2008-06-13 04:27:10 51°14.666 2°54.524 20.1692 0.291086 1.826167 -1.697049
2008-06-13 04:27:15 51°14.675 2°54.502 20.1453 0.291086 1.826167 -1.697049
2008-06-13 04:27:19 51°14.682 2°54.485 20.179 0.278012 1.739499 -1.697049
2008-06-13 04:27:23 51°14.689 2°54.467 20.1818 0.279968 1.752511 -1.697049
2008-06-13 04:27:29 51°14.698 2°54.439 20.1725 0.279453 1.749105 -1.697049
2008-06-13 04:27:35 51°14.705 2°54.41 20.1547 0.298601 1.876167 -1.697049
2008-06-13 04:27:39 51°14.71 2°54.391 20.1898 0.279659 1.750641 -1.697049
2008-06-13 04:27:43 51°14.715 2°54.371 20.1604 0.279659 1.750641 -1.697049
2008-06-13 04:27:49 51°14.721 2°54.342 20.1863 0.297778 1.87084 -1.697049
2008-06-13 04:27:55 51°14.726 2°54.311 20.1823 0.298292 1.874039 -1.697049
2008-06-13 04:27:59 51°14.729 2°54.29 20.172 0.293866 1.844365 -1.697049
2008-06-13 04:28:03 51°14.731 2°54.269 20.1759 0.288718 1.810133 -1.697049
2008-06-13 04:28:09 51°14.734 2°54.238 20.1713 0.279659 1.750119 -1.697049
2008-06-13 04:28:15 51°14.736 2°54.205 20.1739 0.279659 1.750119 -1.697049
2008-06-13 04:28:19 51°14.738 2°54.184 20.1604 0.291189 1.82656 -1.697049
2008-06-13 04:28:25 51°14.739 2°54.152 20.1406 0.273071 1.706662 -1.697049
2008-06-13 04:28:30 51°14.741 2°54.125 20.1377 0.292218 1.833502 -1.697049
2008-06-13 04:28:35 51°14.742 2°54.098 20.1382 0.296028 1.858837 -1.697049
2008-06-13 04:28:39 51°14.743 2°54.076 20.1428 0.283365 1.774865 -1.697049
2008-06-13 04:28:45 51°14.745 2°54.044 20.1485 0.283365 1.774865 -1.697049
2008-06-13 04:28:50 51°14.745 2°54.017 20.1346 0.281306 1.761161 -1.697049
2008-06-13 04:28:55 51°14.746 2°53.99 20.1568 0.292218 1.833393 -1.697049
2008-06-13 04:28:59 51°14.747 2°53.968 20.1594 0.269571 1.683384 -1.697049
2008-06-13 04:29:05 51°14.748 2°53.936 20.135 0.298086 1.872186 -1.697049
2008-06-13 04:29:10 51°14.75 2°53.909 20.1539 0.258453 1.610056 -1.697049
2008-06-13 04:29:15 51°14.752 2°53.882 20.1465 0.258453 1.610056 -1.697049
2008-06-13 04:29:19 51°14.754 2°53.861 20.1554 0.279556 1.74923 -1.697049
2008-06-13 04:29:25 51°14.756 2°53.829 20.1495 0.285733 1.790092 -1.731873
2008-06-13 04:29:29 51°14.758 2°53.807 20.1662 0.278424 1.74167 -1.697049
2008-06-13 04:29:35 51°14.76 2°53.775 20.1349 0.289645 1.816026 -1.697049
2008-06-13 04:29:39 51°14.761 2°53.754 20.1598 0.273894 1.711763 -1.697049
2008-06-13 04:29:43 51°14.763 2°53.733 20.1523 0.273894 1.711763 -1.697049
2008-06-13 04:29:49 51°14.767 2°53.701 20.1481 0.279247 1.747221 -1.697049
2008-06-13 04:29:55 51°14.769 2°53.669 20.1443 0.279865 1.751308 -1.697049
2008-06-13 04:29:59 51°14.772 2°53.648 20.1411 0.298601 1.875608 -1.697049
2008-06-13 04:30:03 51°14.774 2°53.626 20.1434 0.30169 1.896146 -1.697049
2008-06-13 04:30:10 51°14.777 2°53.59 20.1551 0.276777 1.730916 -1.697049
2008-06-13 04:30:15 51°14.78 2°53.563 20.1388 0.276777 1.730916 -1.697049
2008-06-13 04:30:19 51°14.782 2°53.542 20.1712 0.28738 1.801115 -1.697049
2008-06-13 04:30:25 51°14.785 2°53.51 20.1705 0.287586 1.802516 -1.697049
2008-06-13 04:30:30 51°14.788 2°53.484 20.1605 0.283983 1.778639 -1.697049
2008-06-13 04:30:35 51°14.791 2°53.458 20.1546 0.268129 1.673841 -1.697049
2008-06-13 04:30:39 51°14.793 2°53.437 20.1578 0.280483 1.75543 -1.697049
2008-06-13 04:30:45 51°14.796 2°53.405 20.1689 0.280483 1.75543 -1.697049
2008-06-13 04:30:50 51°14.798 2°53.378 20.1642 0.287071 1.799068 -1.697049
2008-06-13 04:30:55 51°14.8 2°53.352 20.1671 0.280174 1.753421 -1.697049
2008-06-13 04:30:59 51°14.802 2°53.331 20.1664 0.282542 1.769129 -1.697049
2008-06-13 04:31:05 51°14.804 2°53.298 20.1658 0.2636 1.644044 -1.697049
2008-06-13 04:31:09 51°14.805 2°53.277 20.1634 0.271115 1.693643 -1.731873
2008-06-13 04:31:15 51°14.808 2°53.245 20.1643 0.271115 1.693643 -1.731873
2008-06-13 04:31:19 51°14.809 2°53.223 20.1638 0.278115 1.739973 -1.697049
2008-06-13 04:31:25 51°14.811 2°53.191 20.1665 0.276365 1.728434 -1.697049
2008-06-13 04:31:30 51°14.813 2°53.164 20.1512 0.269879 1.685623 -1.697049
2008-06-13 04:31:35 51°14.815 2°53.138 20.1454 0.296233 1.860242 -1.697049
2008-06-13 04:31:39 51°14.816 2°53.116 20.1681 0.275644 1.723772 -1.697049
2008-06-13 04:31:43 51°14.817 2°53.095 20.1464 0.275644 1.723772 -1.697049
2008-06-13 04:31:49 51°14.819 2°53.062 20.1529 0.279247 1.747568 -1.697049
2008-06-13 04:31:55 51°14.821 2°53.03 20.1583 0.274512 1.716219 -1.697049
2008-06-13 04:31:59 51°14.823 2°53.009 20.1556 0.271321 1.695137 -1.697049
2008-06-13 04:32:03 51°14.824 2°52.987 20.1567 0.287998 1.805533 -1.697049
2008-06-13 04:32:09 51°14.826 2°52.956 20.1728 0.289748 1.817178 -1.697049
2008-06-13 04:32:15 51°14.828 2°52.923 20.1567 0.289748 1.817178 -1.697049
2008-06-13 04:32:19 51°14.83 2°52.902 20.17 0.295616 1.856174 -1.697049
2008-06-13 04:32:23 51°14.832 2°52.881 20.1633 0.278115 1.740076 -1.697049
2008-06-13 04:32:29 51°14.834 2°52.849 20.1483 0.279865 1.751586 -1.697049
2008-06-13 04:32:35 51°14.836 2°52.817 20.169 0.274512 1.716151 -1.697049
2008-06-13 04:32:39 51°14.837 2°52.796 20.1658 0.275644 1.723635 -1.697049
2008-06-13 04:32:43 51°14.838 2°52.774 20.1649 0.275644 1.723635 -1.697049
2008-06-13 04:32:49 51°14.84 2°52.742 20.1706 0.286351 1.794541 -1.697049
2008-06-13 04:32:55 51°14.841 2°52.71 20.1618 0.288718 1.810277 -1.697049
2008-06-13 04:32:59 51°14.843 2°52.688 20.1584 0.266379 1.662596 -1.697049
2008-06-13 04:33:05 51°14.844 2°52.656 20.1397 0.298498 1.875371 -1.697049
2008-06-13 04:33:09 51°14.846 2°52.635 20.1588 0.263394 1.643013 -1.697049
2008-06-13 04:33:15 51°14.847 2°52.602 20.1614 0.263394 1.643013 -1.697049
2008-06-13 04:33:19 51°14.849 2°52.581 20.1658 0.281718 1.763992 -1.697049
2008-06-13 04:33:25 51°14.851 2°52.549 20.1598 0.27585 1.725168 -1.731873
2008-06-13 04:33:29 51°14.852 2°52.528 20.1645 0.276365 1.728571 -1.697049
2008-06-13 04:33:35 51°14.854 2°52.495 20.1707 0.250115 1.555657 -1.697049
2008-06-13 04:33:39 51°14.856 2°52.474 20.1666 0.283365 1.775042 -1.697049
2008-06-13 04:33:45 51°14.858 2°52.442 20.1685 0.283365 1.775042 -1.697049
2008-06-13 04:33:50 51°14.86 2°52.415 20.1728 0.285424 1.78872 -1.697049
2008-06-13 04:33:55 51°14.862 2°52.389 20.1748 0.276571 1.730139 -1.697049
2008-06-13 04:33:59 51°14.863 2°52.367 20.1638 0.275541 1.723331 -1.697049
2008-06-13 04:34:05 51°14.866 2°52.335 20.1562 0.278424 1.742431 -1.697049
2008-06-13 04:34:10 51°14.868 2°52.308 20.1484 0.265865 1.659498 -1.697049
2008-06-13 04:34:15 51°14.869 2°52.281 20.1749 0.265865 1.659498 -1.697049
2008-06-13 04:34:19 51°14.871 2°52.26 20.1581 0.273585 1.710471 -1.697049
2008-06-13 04:34:23 51°14.871 2°52.238 20.1636 0.263703 1.64531 -1.697049
2008-06-13 04:34:30 51°14.873 2°52.2 20.164 0.279144 1.747269 -1.697049
2008-06-13 04:34:35 51°14.873 2°52.173 20.1693 0.250012 1.555166 -1.697049
2008-06-13 04:34:39 51°14.874 2°52.152 20.1643 0.299219 1.880387 -1.697049
2008-06-13 04:34:43 51°14.874 2°52.131 20.1681 0.299219 1.880387 -1.697049
2008-06-13 04:34:50 51°14.875 2°52.093 20.1685 0.293866 1.844695 -1.697049
2008-06-13 04:34:55 51°14.877 2°52.067 20.1661 0.293866 1.844659 -1.697049
2008-06-13 04:34:59 51°14.876 2°52.044 20.1663 0.27863 1.743689 -1.697049
2008-06-13 04:35:05 51°14.878 2°52.011 20.1725 0.271321 1.695373 -1.697049
2008-06-13 04:35:10 51°14.878 2°51.984 20.1523 0.28563 1.790085 -1.697049
2008-06-13 04:35:15 51°14.879 2°51.957 20.1593 0.28563 1.790085 -1.697049
2008-06-13 04:35:19 51°14.879 2°51.936 20.1751 0.25835 1.609954 -1.697049
2008-06-13 04:35:25 51°14.88 2°51.903 20.1581 0.308587 1.942766 -1.697049
2008-06-13 04:35:30 51°14.88 2°51.876 20.1654 0.283262 1.77443 -1.697049
2008-06-13 04:35:35 51°14.88 2°51.849 20.1622 0.28563 1.790156 -1.697049
2008-06-13 04:35:39 51°14.88 2°51.827 20.1699 0.266688 1.664897 -1.697049
2008-06-13 04:35:45 51°14.881 2°51.794 20.17 0.266688 1.664897 -1.697049
2008-06-13 04:35:50 51°14.881 2°51.767 20.1762 0.279659 1.750641 -1.697049
2008-06-13 04:35:55 51°14.881 2°51.739 20.1716 0.276056 1.726838 -1.697049
2008-06-13 04:35:59 51°14.881 2°51.717 20.1779 0.266894 1.666355 -1.697049
2008-06-13 04:36:05 51°14.881 2°51.685 20.1629 0.281615 1.763766 -1.697049
2008-06-13 04:36:10 51°14.881 2°51.657 20.1682 0.268232 1.675352 -1.697049
2008-06-13 04:36:15 51°14.881 2°51.629 20.1827 0.268232 1.675352 -1.697049
2008-06-13 04:36:19 51°14.881 2°51.608 20.1725 0.293763 1.844452 -1.697049
2008-06-13 04:36:25 51°14.881 2°51.575 20.168 0.275438 1.722993 -1.697049
2008-06-13 04:36:30 51°14.881 2°51.547 20.17 0.273997 1.713464 -1.697049
2008-06-13 04:36:35 51°14.881 2°51.52 20.1748 0.272762 1.705266 -1.697049
2008-06-13 04:36:39 51°14.881 2°51.498 20.1729 0.262159 1.635263 -1.697049
2008-06-13 04:36:43 51°14.881 2°51.476 20.1776 0.262159 1.635263 -1.697049
2008-06-13 04:36:50 51°14.882 2°51.438 20.1643 0.293557 1.843047 -1.697049
2008-06-13 04:36:55 51°14.882 2°51.41 20.1699 0.26535 1.656334 -1.697049
2008-06-13 04:36:59 51°14.882 2°51.388 20.1706 0.2811 1.760427 -1.697049
2008-06-13 04:37:03 51°14.882 2°51.366 20.1768 0.272865 1.705946 -1.697049
2008-06-13 04:37:10 51°14.883 2°51.327 20.1743 0.279968 1.752964 -1.697049
2008-06-13 04:37:15 51°14.883 2°51.299 20.181 0.279968 1.752964 -1.697049
2008-06-13 04:37:19 51°14.884 2°51.277 20.1777 0.279968 1.752999 -1.697049
2008-06-13 04:37:25 51°14.884 2°51.244 20.1713 0.276983 1.73331 -1.697049
2008-06-13 04:37:30 51°14.884 2°51.216 20.1828 0.270703 1.691866 -1.697049
2008-06-13 04:37:35 51°14.885 2°51.189 20.1801 0.2601 1.62199 -1.697049
2008-06-13 04:37:39 51°14.885 2°51.167 20.1685 0.264732 1.652523 -1.697049
2008-06-13 04:37:43 51°14.886 2°51.145 20.1846 0.264732 1.652523 -1.697049
2008-06-13 04:37:50 51°14.886 2°51.106 20.1806 0.284395 1.782606 -1.697049
2008-06-13 04:37:55 51°14.886 2°51.079 20.1776 0.283056 1.773701 -1.697049
2008-06-13 04:37:59 51°14.886 2°51.057 20.176 0.26432 1.649808 -1.697049
2008-06-13 04:38:05 51°14.887 2°51.024 20.1675 0.290674 1.824123 -1.697049
2008-06-13 04:38:10 51°14.888 2°50.997 20.1676 0.265968 1.660639 -1.697049
2008-06-13 04:38:15 51°14.888 2°50.969 20.1725 0.265968 1.660639 -1.697049
2008-06-13 04:38:19 51°14.889 2°50.947 20.1801 0.262262 1.636234 -1.697049
2008-06-13 04:38:25 51°14.889 2°50.914 20.1666 0.270806 1.69268 -1.697049
2008-06-13 04:38:30 51°14.89 2°50.886 20.1813 0.291189 1.827795 -1.697049
2008-06-13 04:38:35 51°14.89 2°50.859 20.1875 0.258659 1.612659 -1.697049
2008-06-13 04:38:39 51°14.89 2°50.837 20.1733 0.293351 1.842156 -1.697049
2008-06-13 04:38:43 51°14.891 2°50.815 20.1776 0.293351 1.842156 -1.697049
2008-06-13 04:38:50 51°14.892 2°50.776 20.1853 0.258968 1.614629 -1.697049
2008-06-13 04:38:55 51°14.893 2°50.748 20.1855 0.29016 1.820851 -1.697049
2008-06-13 04:38:59 51°14.892 2°50.727 20.1825 0.265968 1.660705 -1.697049
2008-06-13 04:39:03 51°14.893 2°50.705 20.1891 0.263703 1.645702 -1.697049
2008-06-13 04:39:10 51°14.894 2°50.666 20.1841 0.269879 1.68646 -1.697049
2008-06-13 04:39:15 51°14.894 2°50.638 20.1801 0.269879 1.68646 -1.697049
2008-06-13 04:39:19 51°14.895 2°50.616 20.1743 0.27688 1.732732 -1.697049
2008-06-13 04:39:25 51°14.894 2°50.583 20.1857 0.267409 1.670248 -1.697049
2008-06-13 04:39:30 51°14.894 2°50.555 20.1984 0.247541 1.539498 -1.697049
2008-06-13 04:39:35 51°14.895 2°50.528 20.1772 0.289336 1.815456 -1.697049
2008-06-13 04:39:39 51°14.895 2°50.505 20.1799 0.276468 1.730214 -1.697049
2008-06-13 04:39:43 51°14.895 2°50.483 20.2033 0.276468 1.730214 -1.697049
2008-06-13 04:39:50 51°14.895 2°50.445 20.1953 0.25732 1.603816 -1.697049
2008-06-13 04:39:55 51°14.895 2°50.417 20.1877 0.270291 1.689347 -1.697049
2008-06-13 04:39:59 51°14.896 2°50.395 20.1858 0.272968 1.707067 -1.697049
2008-06-13 04:40:05 51°14.896 2°50.361 20.1938 0.259482 1.618083 -1.697049
2008-06-13 04:40:10 51°14.895 2°50.334 20.1848 0.293145 1.840788 -1.697049
2008-06-13 04:40:15 51°14.895 2°50.306 20.1954 0.293145 1.840788 -1.697049
2008-06-13 04:40:19 51°14.896 2°50.285 20.194 0.307764 1.938086 -1.697049
2008-06-13 04:40:25 51°14.897 2°50.252 20.1938 0.281924 1.766303 -1.697049
2008-06-13 04:40:30 51°14.897 2°50.224 20.1779 0.269262 1.682548 -1.697049
2008-06-13 04:40:35 51°14.898 2°50.196 20.1783 0.27513 1.721327 -1.697049
2008-06-13 04:40:39 51°14.898 2°50.175 20.1929 0.262982 1.641147 -1.697049
2008-06-13 04:40:45 51°14.899 2°50.141 20.1969 0.262982 1.641147 -1.697049
2008-06-13 04:40:50 51°14.899 2°50.114 20.1805 0.267409 1.670348 -1.697049
2008-06-13 04:40:55 51°14.901 2°50.086 20.1996 0.276674 1.731611 -1.697049
2008-06-13 04:40:59 51°14.901 2°50.063 20.1903 0.279865 1.752735 -1.731873
2008-06-13 04:41:05 51°14.901 2°50.03 20.1967 0.262365 1.637108 -1.731873
2008-06-13 04:41:10 51°14.902 2°50.002 20.1973 0.265659 1.658832 -1.697049
2008-06-13 04:41:15 51°14.902 2°49.974 20.1789 0.265659 1.658832 -1.697049
2008-06-13 04:41:19 51°14.902 2°49.952 20.198 0.278836 1.745884 -1.697049
2008-06-13 04:41:23 51°14.903 2°49.93 20.1989 0.274821 1.719353 -1.697049
2008-06-13 04:41:30 51°14.903 2°49.891 20.1864 0.267923 1.673812 -1.697049
2008-06-13 04:41:35 51°14.904 2°49.864 20.1949 0.275027 1.720817 -1.697049
2008-06-13 04:41:39 51°14.904 2°49.842 20.196 0.274409 1.716766 -1.697049
2008-06-13 04:41:43 51°14.905 2°49.82 20.2144 0.274409 1.716766 -1.697049
2008-06-13 04:41:50 51°14.904 2°49.781 20.2014 0.271938 1.700466 -1.697049
2008-06-13 04:41:55 51°14.904 2°49.754 20.2097 0.287895 1.806143 -1.697049
2008-06-13 04:41:59 51°14.905 2°49.732 20.2102 0.256085 1.595908 -1.697049
2008-06-13 04:42:03 51°14.906 2°49.71 20.2018 0.273174 1.708598 -1.697049
2008-06-13 04:42:10 51°14.906 2°49.672 20.2047 0.285939 1.793059 -1.697049
2008-06-13 04:42:15 51°14.906 2°49.645 20.1713 0.285939 1.793059 -1.697049
2008-06-13 04:42:19 51°14.907 2°49.623 20.2574 0.274821 1.719387 -1.697049
2008-06-13 04:42:25 51°14.907 2°49.59 20.3501 0.285115 1.787597 -1.697049
2008-06-13 04:42:30 51°14.908 2°49.563 20.362 0.26885 1.68003 -1.697049
2008-06-13 04:42:35 51°14.908 2°49.535 20.3269 0.279247 1.748819 -1.697049
2008-06-13 04:42:39 51°14.909 2°49.513 20.3189 0.259997 1.621699 -1.697049
2008-06-13 04:42:45 51°14.908 2°49.479 20.2892 0.259997 1.621699 -1.697049
2008-06-13 04:42:50 51°14.911 2°49.453 20.3563 0.292733 1.838381 -1.697049
2008-06-13 04:42:55 51°14.91 2°49.425 20.3117 0.247541 1.539926 -1.697049
2008-06-13 04:42:59 51°14.91 2°49.403 20.3069 0.290468 1.823445 -1.697049
2008-06-13 04:43:05 51°14.91 2°49.371 20.3015 0.271012 1.694546 -1.697049
2008-06-13 04:43:10 51°14.911 2°49.344 20.3275 0.250218 1.557415 -1.697049
2008-06-13 04:43:15 51°14.912 2°49.317 20.3046 0.250218 1.557415 -1.697049
2008-06-13 04:43:19 51°14.912 2°49.295 20.3105 0.266585 1.665211 -1.697049
2008-06-13 04:43:25 51°14.912 2°49.263 20.2889 0.29191 1.833018 -1.697049
2008-06-13 04:43:30 51°14.912 2°49.236 20.2831 0.280586 1.757892 -1.731873
2008-06-13 04:43:35 51°14.913 2°49.209 20.3116 0.267923 1.674078 -1.697049
2008-06-13 04:43:39 51°14.913 2°49.187 20.2981 0.269776 1.686283 -1.697049
2008-06-13 04:43:43 51°14.914 2°49.165 20.3076 0.269776 1.686283 -1.697049
2008-06-13 04:43:50 51°14.915 2°49.127 20.2891 0.263703 1.64616 -1.697049
2008-06-13 04:43:55 51°14.915 2°49.099 20.2692 0.254335 1.584456 -1.697049
2008-06-13 04:43:59 51°14.916 2°49.077 20.291 0.262468 1.638014 -1.697049
2008-06-13 04:44:03 51°14.916 2°49.055 20.3048 0.282953 1.773477 -1.697049
2008-06-13 04:44:10 51°14.918 2°49.017 20.3333 0.262056 1.63543 -1.697049
2008-06-13 04:44:15 51°14.918 2°48.99 20.3167 0.262056 1.63543 -1.697049
2008-06-13 04:44:19 51°14.919 2°48.968 20.3318 0.273585 1.711559 -1.697049
2008-06-13 04:44:25 51°14.918 2°48.935 20.3112 0.249497 1.552865 -1.697049
2008-06-13 04:44:30 51°14.92 2°48.908 20.3503 0.269262 1.68305 -1.697049
2008-06-13 04:44:35 51°14.919 2°48.881 20.3141 0.281718 1.76543 -1.697049
2008-06-13 04:44:39 51°14.921 2°48.859 20.3407 0.261438 1.631391 -1.697049
2008-06-13 04:44:45 51°14.921 2°48.826 20.3462 0.261438 1.631391 -1.697049
2008-06-13 04:44:50 51°14.921 2°48.799 20.3382 0.258556 1.612366 -1.697049
2008-06-13 04:44:55 51°14.922 2°48.772 20.3595 0.290777 1.825569 -1.697049
2008-06-13 04:44:59 51°14.922 2°48.75 20.3277 0.267512 1.671559 -1.697049
2008-06-13 04:45:05 51°14.922 2°48.717 20.3259 0.275747 1.725962 -1.697049
2008-06-13 04:45:10 51°14.923 2°48.69 20.3325 0.268129 1.675604 -1.697049
2008-06-13 04:45:15 51°14.923 2°48.663 20.318 0.268129 1.675604 -1.697049
2008-06-13 04:45:19 51°14.924 2°48.641 20.3351 0.288718 1.811933 -1.697049
2008-06-13 04:45:25 51°14.924 2°48.608 20.3815 0.280174 1.755269 -1.697049
2008-06-13 04:45:30 51°14.924 2°48.581 20.3519 0.263085 1.642348 -1.697049
2008-06-13 04:45:35 51°14.925 2°48.554 20.3373 0.29016 1.821539 -1.697049
2008-06-13 04:45:39 51°14.925 2°48.532 20.327 0.26432 1.650595 -1.697049
2008-06-13 04:45:43 51°14.925 2°48.51 20.3413 0.26432 1.650595 -1.697049
2008-06-13 04:45:50 51°14.925 2°48.472 20.3326 0.262879 1.641219 -1.697049
2008-06-13 04:45:55 51°14.926 2°48.445 20.3407 0.280792 1.759676 -1.697049
2008-06-13 04:45:59 51°14.925 2°48.423 20.3548 0.27863 1.745354 -1.697049
2008-06-13 04:46:03 51°14.926 2°48.402 20.3343 0.274821 1.720071 -1.697049
2008-06-13 04:46:10 51°14.928 2°48.364 20.3552 0.249497 1.553082 -1.697049
2008-06-13 04:46:15 51°14.927 2°48.336 20.3304 0.249497 1.553082 -1.697049
2008-06-13 04:46:19 51°14.928 2°48.315 20.3336 0.293557 1.844367 -1.697049
2008-06-13 04:46:23 51°14.929 2°48.294 20.3679 0.26885 1.680664 -1.697049
2008-06-13 04:46:30 51°14.929 2°48.256 20.3329 0.266379 1.664381 -1.697049
2008-06-13 04:46:35 51°14.93 2°48.229 20.3501 0.271218 1.696345 -1.697049
2008-06-13 04:46:39 51°14.931 2°48.207 20.3616 0.261644 1.633105 -1.697049
2008-06-13 04:46:45 51°14.931 2°48.174 20.3383 0.261644 1.633105 -1.697049
2008-06-13 04:46:50 51°14.932 2°48.148 20.3658 0.277909 1.740617 -1.697049
2008-06-13 04:46:55 51°14.932 2°48.121 20.3708 0.286968 1.800711 -1.697049
2008-06-13 04:46:59 51°14.934 2°48.099 20.397 0.285939 1.793915 -1.662225
2008-06-13 04:47:05 51°14.934 2°48.066 20.349 0.277291 1.736561 -1.697049
2008-06-13 04:47:10 51°14.935 2°48.039 20.3305 0.274203 1.716121 -1.697049
2008-06-13 04:47:15 51°14.936 2°48.012 20.3292 0.274203 1.716121 -1.697049
2008-06-13 04:47:19 51°14.936 2°47.991 20.312 0.258659 1.613493 -1.697049
2008-06-13 04:47:25 51°14.937 2°47.958 20.3677 0.2706 1.692329 -1.697049
2008-06-13 04:47:30 51°14.938 2°47.931 20.3949 0.262879 1.641414 -1.697049
2008-06-13 04:47:35 51°14.938 2°47.904 20.3883 0.273688 1.712853 -1.697049
2008-06-13 04:47:39 51°14.939 2°47.882 20.3675 0.276365 1.7306 -1.697049
2008-06-13 04:47:45 51°14.94 2°47.85 20.3796 0.276365 1.7306 -1.697049
2008-06-13 04:47:50 51°14.94 2°47.823 20.3527 0.262262 1.637471 -1.697049
2008-06-13 04:47:55 51°14.941 2°47.796 20.3571 0.263291 1.644229 -1.697049
2008-06-13 04:47:59 51°14.941 2°47.774 20.3366 0.265453 1.658529 -1.697049
2008-06-13 04:48:03 51°14.942 2°47.753 20.371 0.268953 1.681645 -1.697049
2008-06-13 04:48:10 51°14.943 2°47.715 20.3545 0.266071 1.66264 -1.697049
2008-06-13 04:48:15 51°14.944 2°47.688 20.3594 0.266071 1.66264 -1.697049
2008-06-13 04:48:19 51°14.945 2°47.666 20.375 0.26885 1.681065 -1.697049
2008-06-13 04:48:23 51°14.945 2°47.645 20.3329 0.278115 1.742396 -1.697049
2008-06-13 04:48:29 51°14.945 2°47.612 20.3939 0.269674 1.686508 -1.697049
2008-06-13 04:48:34 51°14.945 2°47.585 20.3795 0.275953 1.72808 -1.697049
2008-06-13 04:48:39 51°14.946 2°47.558 20.3707 0.262468 1.638992 -1.697049
2008-06-13 04:48:45 51°14.947 2°47.526 20.3592 0.262468 1.638992 -1.697049
2008-06-13 04:48:50 51°14.947 2°47.499 20.3628 0.2601 1.623377 -1.697049
2008-06-13 04:48:55 51°14.947 2°47.472 20.3587 0.2601 1.62341 -1.697049
2008-06-13 04:48:59 51°14.948 2°47.45 20.3774 0.25557 1.593534 -1.697049
2008-06-13 04:49:05 51°14.948 2°47.418 20.3821 0.266997 1.668924 -1.697049
2008-06-13 04:49:10 51°14.949 2°47.391 20.3698 0.259997 1.622763 -1.697049
2008-06-13 04:49:15 51°14.949 2°47.364 20.3854 0.259997 1.622763 -1.697049
2008-06-13 04:49:19 51°14.95 2°47.343 20.3647 0.262776 1.641062 -1.697049
2008-06-13 04:49:25 51°14.951 2°47.31 20.3973 0.275747 1.726786 -1.697049
2008-06-13 04:49:30 51°14.951 2°47.283 20.3709 0.253718 1.581399 -1.697049
2008-06-13 04:49:35 51°14.953 2°47.257 20.3911 0.266379 1.664811 -1.697049
2008-06-13 04:49:40 51°14.953 2°47.23 20.3803 0.256085 1.596955 -1.697049
2008-06-13 04:49:45 51°14.954 2°47.203 20.407 0.256085 1.596955 -1.697049
2008-06-13 04:49:50 51°14.954 2°47.176 20.3689 0.265453 1.658694 -1.697049
2008-06-13 04:49:55 51°14.955 2°47.149 20.3623 0.270806 1.694094 -1.697049
2008-06-13 04:49:59 51°14.955 2°47.127 20.3765 0.259894 1.62202 -1.697049
2008-06-13 04:50:05 51°14.957 2°47.095 20.3835 0.262365 1.638313 -1.697049
2008-06-13 04:50:10 51°14.956 2°47.068 20.3487 0.278527 1.745158 -1.697049
2008-06-13 04:50:15 51°14.957 2°47.041 20.3648 0.278527 1.745158 -1.697049
2008-06-13 04:50:19 51°14.956 2°47.02 20.3705 0.287174 1.802544 -1.697049
2008-06-13 04:50:23 51°14.957 2°46.999 20.3875 0.256497 1.599667 -1.697049
2008-06-13 04:50:30 51°14.958 2°46.962 20.3887 0.2706 1.692733 -1.697049
2008-06-13 04:50:35 51°14.959 2°46.935 20.3925 0.263291 1.644458 -1.697049
2008-06-13 04:50:39 51°14.959 2°46.914 20.3897 0.275335 1.72406 -1.697049
2008-06-13 04:50:43 51°14.96 2°46.892 20.3812 0.275335 1.72406 -1.697049
2008-06-13 04:50:50 51°14.96 2°46.855 20.3756 0.260718 1.627482 -1.697049
2008-06-13 04:50:55 51°14.96 2°46.828 20.3914 0.240953 1.497478 -1.697049
2008-06-13 04:50:59 51°14.961 2°46.806 20.4058 0.259379 1.618627 -1.697049
2008-06-13 04:51:05 51°14.961 2°46.774 20.4135 0.255468 1.592856 -1.697049
2008-06-13 04:51:10 51°14.962 2°46.747 20.42 0.254953 1.589531 -1.697049
2008-06-13 04:51:15 51°14.963 2°46.721 20.4225 0.254953 1.589531 -1.697049
2008-06-13 04:51:19 51°14.963 2°46.7 20.3913 0.264321 1.651317 -1.697049
2008-06-13 04:51:25 51°14.964 2°46.667 20.4337 0.289439 1.817839 -1.697049
2008-06-13 04:51:30 51°14.963 2°46.641 20.4099 0.287689 1.806178 -1.697049
2008-06-13 04:51:35 51°14.965 2°46.614 20.4248 0.255159 1.591044 -1.697049
2008-06-13 04:51:40 51°14.964 2°46.587 20.4017 0.286454 1.797867 -1.697049
2008-06-13 04:51:45 51°14.966 2°46.561 20.4263 0.286454 1.797867 -1.697049
2008-06-13 04:51:50 51°14.966 2°46.533 20.4007 0.24785 1.542843 -1.697049
2008-06-13 04:51:55 51°14.967 2°46.507 20.4122 0.263188 1.643811 -1.697049
2008-06-13 04:52:00 51°14.967 2°46.48 20.4118 0.255982 1.596309 -1.697049
2008-06-13 04:52:04 51°14.968 2°46.459 20.4203 0.24435 1.519826 -1.697049
2008-06-13 04:52:10 51°14.969 2°46.427 20.4512 0.277086 1.735751 -1.697049
2008-06-13 04:52:15 51°14.97 2°46.401 20.4381 0.277086 1.735751 -1.697049
2008-06-13 04:52:19 51°14.97 2°46.379 20.4303 0.269262 1.684021 -1.697049
2008-06-13 04:52:25 51°14.971 2°46.348 20.4311 0.264012 1.649377 -1.697049
2008-06-13 04:52:30 51°14.972 2°46.321 20.446 0.273894 1.714692 -1.697049
2008-06-13 04:52:35 51°14.973 2°46.294 20.4308 0.261232 1.631071 -1.697049
2008-06-13 04:52:40 51°14.974 2°46.268 20.46 0.249806 1.555822 -1.697049
2008-06-13 04:52:43 51°14.975 2°46.252 20.442 0.249806 1.555822 -1.697049
2008-06-13 04:52:50 51°14.976 2°46.214 20.4514 0.262982 1.642649 -1.697049
2008-06-13 04:52:55 51°14.977 2°46.187 20.4519 0.270188 1.690314 -1.697049
2008-06-13 04:53:00 51°14.978 2°46.161 20.4391 0.283468 1.778304 -1.697049
2008-06-13 04:53:05 51°14.979 2°46.134 20.4626 0.252997 1.577033 -1.697049
2008-06-13 04:53:10 51°14.978 2°46.107 20.3333 0.277291 1.737494 -1.697049
2008-06-13 04:53:15 51°14.98 2°46.08 19.9774 0.277291 1.737494 -1.697049
2008-06-13 04:53:20 51°14.978 2°46.053 20.0369 0.272865 1.708255 -1.697049
2008-06-13 04:53:25 51°14.979 2°46.027 19.9649 0.271629 1.700081 -1.697049
2008-06-13 04:53:30 51°14.978 2°46 19.9255 0.2671 1.670235 -1.697049
2008-06-13 04:53:35 51°14.98 2°45.973 20.0148 0.263703 1.647732 -1.697049
2008-06-13 04:53:40 51°14.979 2°45.946 19.9628 0.280071 1.755984 -1.697049
2008-06-13 04:53:45 51°14.981 2°45.919 20.024 0.280071 1.755984 -1.697049
2008-06-13 04:53:50 51°14.981 2°45.892 20.0169 0.264629 1.653816 -1.697049
2008-06-13 04:53:55 51°14.982 2°45.865 20.0064 0.260203 1.624541 -1.697049
2008-06-13 04:54:00 51°14.982 2°45.838 20.028 0.265968 1.662588 -1.697049
2008-06-13 04:54:05 51°14.983 2°45.811 20.033 0.239615 1.489177 -1.697049
2008-06-13 04:54:10 51°14.984 2°45.784 20.0139 0.27338 1.711661 -1.697049
2008-06-13 04:54:15 51°14.985 2°45.757 20.0088 0.27338 1.711661 -1.697049
2008-06-13 04:54:20 51°14.985 2°45.73 20.0209 0.262262 1.638253 -1.697049
2008-06-13 04:54:25 51°14.986 2°45.703 20.0485 0.277086 1.736338 -1.697049
2008-06-13 04:54:30 51°14.986 2°45.676 20.0598 0.243012 1.511704 -1.697049
2008-06-13 04:54:35 51°14.987 2°45.649 20.0653 0.269777 1.688095 -1.697049
2008-06-13 04:54:40 51°14.988 2°45.622 20.0472 0.264938 1.656152 -1.697049
2008-06-13 04:54:45 51°14.988 2°45.595 20.0455 0.264938 1.656152 -1.697049
2008-06-13 04:54:50 51°14.989 2°45.568 20.0532 0.26185 1.635763 -1.697049
2008-06-13 04:54:55 51°14.99 2°45.54 20.0846 0.280586 1.759712 -1.697049
2008-06-13 04:55:00 51°14.991 2°45.513 20.0858 0.250732 1.562536 -1.697049
2008-06-13 04:55:04 51°14.991 2°45.491 20.0912 0.263497 1.646603 -1.697049
2008-06-13 04:55:10 51°14.992 2°45.459 20.1015 0.269159 1.684011 -1.697049
2008-06-13 04:55:15 51°14.993 2°45.432 20.1297 0.269159 1.684011 -1.697049
2008-06-13 04:55:20 51°14.994 2°45.405 20.115 0.271424 1.69899 -1.697049
2008-06-13 04:55:24 51°14.994 2°45.384 20.1125 0.240541 1.49558 -1.697049
2008-06-13 04:55:30 51°14.996 2°45.351 20.1083 0.289439 1.81849 -1.697049
2008-06-13 04:55:35 51°14.995 2°45.325 20.1104 0.249703 1.555826 -1.697049
2008-06-13 04:55:40 51°14.996 2°45.298 20.1153 0.287277 1.804161 -1.697049
2008-06-13 04:55:45 51°14.997 2°45.271 20.1024 0.287277 1.804161 -1.697049
2008-06-13 04:55:50 51°14.997 2°45.244 20.1109 0.248468 1.547733 -1.697049
2008-06-13 04:55:55 51°14.998 2°45.217 20.1068 0.262468 1.639905 -1.697049
2008-06-13 04:56:00 51°14.998 2°45.19 20.1201 0.259379 1.619561 -1.697049
2008-06-13 04:56:05 51°14.999 2°45.163 20.1234 0.259173 1.618203 -1.697049
2008-06-13 04:56:10 51°15 2°45.135 20.1395 0.263909 1.649485 -1.697049
2008-06-13 04:56:15 51°15 2°45.108 20.1426 0.263909 1.649485 -1.697049
2008-06-13 04:56:20 51°15 2°45.08 20.1538 0.265865 1.662405 -1.697049
2008-06-13 04:56:25 51°15.002 2°45.053 20.1561 0.262159 1.637964 -1.697049
2008-06-13 04:56:30 51°15.003 2°45.026 20.1543 0.273585 1.713569 -1.697049
2008-06-13 04:56:35 51°15.003 2°44.998 20.1641 0.27513 1.723795 -1.697049
2008-06-13 04:56:40 51°15.005 2°44.971 20.1526 0.250115 1.55869 -1.697049
2008-06-13 04:56:45 51°15.005 2°44.944 20.1753 0.250115 1.55869 -1.697049
2008-06-13 04:56:50 51°15.007 2°44.916 20.167 0.272865 1.708765 -1.697049
2008-06-13 04:56:55 51°15.007 2°44.889 20.1853 0.255982 1.597357 -1.697049
2008-06-13 04:57:00 51°15.009 2°44.862 20.1718 0.259379 1.619722 -1.697049
2008-06-13 04:57:05 51°15.009 2°44.835 20.177 0.25557 1.594644 -1.697049
2008-06-13 04:57:10 51°15.01 2°44.808 20.179 0.260718 1.628518 -1.697049
2008-06-13 04:57:15 51°15.012 2°44.781 20.1845 0.260718 1.628518 -1.697049
2008-06-13 04:57:19 51°15.012 2°44.759 20.1798 0.254335 1.586411 -1.697049
2008-06-13 04:57:24 51°15.013 2°44.732 20.1928 0.271321 1.698545 -1.697049
2008-06-13 04:57:30 51°15.015 2°44.699 20.1923 0.245482 1.528202 -1.697049
2008-06-13 04:57:35 51°15.016 2°44.672 20.1917 0.263909 1.649551 -1.697049
2008-06-13 04:57:40 51°15.017 2°44.645 20.1828 0.258556 1.614259 -1.697049
2008-06-13 04:57:43 51°15.018 2°44.629 20.1949 0.258556 1.614259 -1.697049
2008-06-13 04:57:50 51°15.021 2°44.591 20.201 0.277703 1.740881 -1.697049
2008-06-13 04:57:55 51°15.022 2°44.564 20.1961 0.256394 1.600071 -1.697049
2008-06-13 04:58:00 51°15.025 2°44.537 20.2024 0.268026 1.676825 -1.697049
2008-06-13 04:58:05 51°15.025 2°44.51 20.216 0.266276 1.665324 -1.697049
2008-06-13 04:58:10 51°15.028 2°44.483 20.2104 0.270394 1.692551 -1.697049
2008-06-13 04:58:15 51°15.029 2°44.456 20.1988 0.270394 1.692551 -1.697049
2008-06-13 04:58:19 51°15.031 2°44.435 20.1989 0.266585 1.667398 -1.697049
2008-06-13 04:58:25 51°15.033 2°44.402 20.2031 0.259997 1.623894 -1.697049
2008-06-13 04:58:30 51°15.034 2°44.375 20.2254 0.264938 1.656515 -1.697049
2008-06-13 04:58:35 51°15.036 2°44.348 20.2115 0.267203 1.671547 -1.697049
2008-06-13 04:58:39 51°15.037 2°44.327 20.2059 0.249497 1.554874 -1.697049
2008-06-13 04:58:45 51°15.038 2°44.295 20.2075 0.249497 1.554874 -1.697049
2008-06-13 04:58:50 51°15.041 2°44.269 20.2244 0.267718 1.67505 -1.697049
2008-06-13 04:58:55 51°15.042 2°44.242 20.2243 0.263291 1.645833 -1.697049
2008-06-13 04:59:00 51°15.043 2°44.215 20.2281 0.268232 1.678454 -1.697049
2008-06-13 04:59:05 51°15.045 2°44.189 20.2223 0.260409 1.62674 -1.697049
2008-06-13 04:59:10 51°15.047 2°44.162 20.2288 0.271424 1.699497 -1.697049
2008-06-13 04:59:15 51°15.049 2°44.135 20.234 0.271424 1.699497 -1.697049
2008-06-13 04:59:19 51°15.05 2°44.114 20.2294 0.254644 1.588698 -1.697049
2008-06-13 04:59:25 51°15.052 2°44.082 20.2353 0.251556 1.568361 -1.697049
2008-06-13 04:59:30 51°15.054 2°44.055 20.2328 0.263085 1.644408 -1.731873
2008-06-13 04:59:35 51°15.056 2°44.028 20.2505 0.260409 1.62674 -1.697049
2008-06-13 04:59:40 51°15.056 2°44.001 20.24 0.262571 1.641107 -1.697049
2008-06-13 04:59:43 51°15.057 2°43.986 20.2457 0.262571 1.641107 -1.697049
2008-06-13 04:59:50 51°15.06 2°43.949 20.2597 0.253615 1.582074 -1.697049
2008-06-13 04:59:55 51°15.062 2°43.923 20.2217 0.267203 1.67178 -1.697049
2008-06-13 05:00:00 51°15.065 2°43.897 20.2249 0.268747 1.681958 -1.697049
2008-06-13 05:00:05 51°15.068 2°43.871 20.248 0.271218 1.69827 -1.697049
2008-06-13 05:00:10 51°15.071 2°43.845 20.2487 0.266482 1.66695 -1.697049
2008-06-13 05:00:15 51°15.073 2°43.819 20.2621 0.266482 1.66695 -1.697049
2008-06-13 05:00:19 51°15.076 2°43.798 20.2578 0.266997 1.670353 -1.697049
2008-06-13 05:00:25 51°15.079 2°43.767 20.2501 0.264218 1.651985 -1.697049
2008-06-13 05:00:30 51°15.083 2°43.741 20.2488 0.266585 1.667631 -1.697049
2008-06-13 05:00:35 51°15.087 2°43.716 20.2604 0.257526 1.607855 -1.697049
2008-06-13 05:00:40 51°15.09 2°43.689 20.1935 0.259585 1.621435 -1.731873
2008-06-13 05:00:45 51°15.095 2°43.664 20.2068 0.259585 1.621435 -1.731873
2008-06-13 05:00:50 51°15.099 2°43.638 20.2249 0.258247 1.612607 -1.697049
2008-06-13 05:00:55 51°15.103 2°43.613 20.238 0.268644 1.681311 -1.697049
2008-06-13 05:00:59 51°15.107 2°43.593 20.2353 0.254438 1.587594 -1.697049
2008-06-13 05:01:05 51°15.111 2°43.561 20.2458 0.251865 1.570612 -1.697049
2008-06-13 05:01:10 51°15.116 2°43.536 20.2462 0.266585 1.667797 -1.697049
2008-06-13 05:01:15 51°15.119 2°43.511 20.2533 0.266585 1.667797 -1.697049
2008-06-13 05:01:19 51°15.122 2°43.49 20.2482 0.259173 1.618848 -1.697049
2008-06-13 05:01:25 51°15.127 2°43.459 20.2485 0.261953 1.637225 -1.697049
2008-06-13 05:01:30 51°15.13 2°43.433 20.2486 0.254232 1.586333 -1.697049
2008-06-13 05:01:35 51°15.134 2°43.406 20.2555 0.263909 1.650208 -1.697049
2008-06-13 05:01:39 51°15.137 2°43.386 20.2549 0.268644 1.681545 -1.697049
2008-06-13 05:01:43 51°15.14 2°43.365 20.2676 0.268644 1.681545 -1.697049
2008-06-13 05:01:50 51°15.146 2°43.33 20.266 0.263806 1.649594 -1.697049
2008-06-13 05:01:55 51°15.148 2°43.303 20.2599 0.263909 1.650372 -1.697049
2008-06-13 05:01:59 51°15.152 2°43.283 20.2669 0.252071 1.572281 -1.697049
2008-06-13 05:02:05 51°15.155 2°43.252 20.2385 0.243321 1.514816 -1.697049
2008-06-13 05:02:10 51°15.159 2°43.226 20.2523 0.259791 1.623246 -1.697049
2008-06-13 05:02:15 51°15.163 2°43.2 20.2491 0.259791 1.623246 -1.697049
2008-06-13 05:02:20 51°15.167 2°43.175 20.2593 0.26535 1.660062 -1.697049
2008-06-13 05:02:25 51°15.17 2°43.149 20.2642 0.245379 1.528407 -1.697049
2008-06-13 05:02:30 51°15.173 2°43.123 20.2671 0.280071 1.757594 -1.697049
2008-06-13 05:02:35 51°15.176 2°43.097 20.2635 0.257218 1.606331 -1.731873
2008-06-13 05:02:40 51°15.179 2°43.072 20.2714 0.277806 1.742361 -1.697049
2008-06-13 05:02:45 51°15.183 2°43.046 20.2682 0.277806 1.742361 -1.697049
2008-06-13 05:02:50 51°15.186 2°43.021 20.2682 0.252071 1.57225 -1.731873
2008-06-13 05:02:55 51°15.19 2°42.995 20.2752 0.272659 1.708184 -1.697049
2008-06-13 05:03:00 51°15.193 2°42.969 20.28 0.270703 1.695235 -1.731873
2008-06-13 05:03:05 51°15.197 2°42.943 20.2794 0.265144 1.658436 -1.697049
2008-06-13 05:03:10 51°15.201 2°42.918 20.28 0.273791 1.71565 -1.697049
2008-06-13 05:03:15 51°15.204 2°42.893 20.2887 0.273791 1.71565 -1.697049
2008-06-13 05:03:20 51°15.207 2°42.867 20.2892 0.2531 1.578967 -1.697049
2008-06-13 05:03:25 51°15.211 2°42.842 20.2944 0.251453 1.56812 -1.697049
2008-06-13 05:03:30 51°15.216 2°42.818 20.2949 0.261747 1.635963 -1.697049
2008-06-13 05:03:35 51°15.219 2°42.793 20.295 0.285939 1.796203 -1.697049
2008-06-13 05:03:39 51°15.222 2°42.772 20.2924 0.287483 1.806465 -1.697049
2008-06-13 05:03:45 51°15.227 2°42.741 20.2883 0.287483 1.806465 -1.697049
2008-06-13 05:03:50 51°15.231 2°42.717 20.2895 0.277806 1.742223 -1.697049
2008-06-13 05:03:55 51°15.236 2°42.692 20.2912 0.275644 1.727892 -1.697049
2008-06-13 05:04:00 51°15.24 2°42.666 20.2928 0.266585 1.66793 -1.697049
2008-06-13 05:04:04 51°15.243 2°42.646 20.299 0.266379 1.666602 -1.697049
2008-06-13 05:04:10 51°15.247 2°42.616 20.2843 0.248879 1.551212 -1.697049
2008-06-13 05:04:15 51°15.252 2°42.591 20.2877 0.248879 1.551212 -1.697049
2008-06-13 05:04:20 51°15.256 2°42.566 20.2877 0.254232 1.586491 -1.697049
2008-06-13 05:04:25 51°15.259 2°42.541 20.2892 0.264321 1.65306 -1.697049
2008-06-13 05:04:30 51°15.263 2°42.515 20.2895 0.259791 1.623149 -1.697049
2008-06-13 05:04:35 51°15.268 2°42.489 20.3009 0.259276 1.619753 -1.697049
2008-06-13 05:04:40 51°15.271 2°42.464 20.2972 0.253615 1.582452 -1.697049
2008-06-13 05:04:45 51°15.275 2°42.439 20.3039 0.253615 1.582452 -1.697049
2008-06-13 05:04:50 51°15.279 2°42.414 20.3085 0.252379 1.574346 -1.697049
2008-06-13 05:04:55 51°15.284 2°42.389 20.3055 0.272556 1.707639 -1.697049
2008-06-13 05:05:00 51°15.287 2°42.364 20.3012 0.267924 1.677046 -1.697049
2008-06-13 05:05:05 51°15.291 2°42.339 20.3067 0.263291 1.646423 -1.697049
2008-06-13 05:05:10 51°15.294 2°42.314 20.3119 0.281821 1.76921 -1.697049
2008-06-13 05:05:15 51°15.298 2°42.29 20.3066 0.281821 1.76921 -1.697049
2008-06-13 05:05:20 51°15.302 2°42.265 20.3138 0.250835 1.564396 -1.697049
2008-06-13 05:05:25 51°15.307 2°42.24 20.3137 0.277806 1.742604 -1.697049
2008-06-13 05:05:30 51°15.311 2°42.215 20.3129 0.249909 1.558296 -1.697049
2008-06-13 05:05:35 51°15.317 2°42.191 20.3201 0.257526 1.608464 -1.697049
2008-06-13 05:05:39 51°15.32 2°42.171 20.3174 0.267409 1.673708 -1.697049
2008-06-13 05:05:45 51°15.326 2°42.141 20.3185 0.267409 1.673708 -1.697049
2008-06-13 05:05:50 51°15.332 2°42.117 20.322 0.261644 1.635642 -1.697049
2008-06-13 05:05:55 51°15.336 2°42.092 20.3291 0.263497 1.647915 -1.697049
2008-06-13 05:06:00 51°15.342 2°42.068 20.3186 0.2671 1.671732 -1.697049
2008-06-13 05:06:04 51°15.346 2°42.048 20.317 0.262159 1.639139 -1.697049
2008-06-13 05:06:10 51°15.352 2°42.017 20.3235 0.257629 1.609271 -1.697049
2008-06-13 05:06:15 51°15.358 2°41.993 20.3261 0.257629 1.609271 -1.697049
2008-06-13 05:06:20 51°15.364 2°41.969 20.3233 0.266276 1.666419 -1.697049
2008-06-13 05:06:24 51°15.369 2°41.949 20.3246 0.260718 1.629719 -1.697049
2008-06-13 05:06:30 51°15.376 2°41.92 20.3263 0.267512 1.674656 -1.697049
2008-06-13 05:06:35 51°15.382 2°41.897 20.3289 0.261232 1.633183 -1.697049
2008-06-13 05:06:40 51°15.39 2°41.873 20.3316 0.249394 1.555125 -1.697049
2008-06-13 05:06:45 51°15.396 2°41.849 20.3339 0.249394 1.555125 -1.697049
2008-06-13 05:06:50 51°15.404 2°41.826 20.3297 0.252173 1.573429 -1.697049
2008-06-13 05:06:55 51°15.41 2°41.802 20.2901 0.267409 1.674109 -1.697049
2008-06-13 05:07:00 51°15.418 2°41.779 20.3013 0.273688 1.715617 -1.697049
2008-06-13 05:07:05 51°15.426 2°41.756 20.3065 0.276674 1.735441 -1.697049
2008-06-13 05:07:10 51°15.433 2°41.734 20.3081 0.266997 1.671351 -1.697049
2008-06-13 05:07:15 51°15.441 2°41.712 20.3043 0.266997 1.671351 -1.697049
2008-06-13 05:07:19 51°15.448 2°41.694 20.3146 0.274821 1.723225 -1.697049
2008-06-13 05:07:25 51°15.459 2°41.668 20.3185 0.251247 1.567451 -1.697049
2008-06-13 05:07:30 51°15.466 2°41.646 20.3088 0.224895 1.394551 -1.697049
2008-06-13 05:07:35 51°15.475 2°41.624 20.2991 0.257218 1.606875 -1.697049
2008-06-13 05:07:39 51°15.481 2°41.607 20.3173 0.253512 1.582467 -1.697049
2008-06-13 05:07:45 51°15.491 2°41.58 20.3203 0.253512 1.582467 -1.697049
2008-06-13 05:07:50 51°15.499 2°41.559 20.3242 0.265968 1.664642 -1.697049
2008-06-13 05:07:55 51°15.508 2°41.537 20.3228 0.275953 1.730698 -1.697049
2008-06-13 05:07:59 51°15.515 2°41.52 20.328 0.272659 1.708797 -1.697049
2008-06-13 05:08:05 51°15.524 2°41.493 20.3235 0.236527 1.470603 -1.697049
2008-06-13 05:08:10 51°15.532 2°41.471 20.3273 0.266071 1.665157 -1.697049
2008-06-13 05:08:15 51°15.539 2°41.448 20.336 0.266071 1.665157 -1.697049
2008-06-13 05:08:19 51°15.546 2°41.431 20.3048 0.241674 1.504387 -1.697049
2008-06-13 05:08:25 51°15.554 2°41.403 20.2972 0.253821 1.584314 -1.697049
2008-06-13 05:08:30 51°15.563 2°41.381 20.3043 0.260615 1.629169 -1.697049
2008-06-13 05:08:35 51°15.569 2°41.357 20.3135 0.261747 1.63668 -1.697049
2008-06-13 05:08:40 51°15.577 2°41.335 20.3353 0.249909 1.558607 -1.697049
2008-06-13 05:08:45 51°15.583 2°41.312 20.3246 0.249909 1.558607 -1.697049
2008-06-13 05:08:50 51°15.59 2°41.29 20.3221 0.308999 1.95075 -1.697049
2008-06-13 05:08:55 51°15.597 2°41.268 20.2903 0.301175 1.898459 -1.697049
2008-06-13 05:09:00 51°15.604 2°41.246 20.2843 0.30344 1.913651 -1.697049
2008-06-13 05:09:04 51°15.61 2°41.228 20.3023 0.266894 1.67077 -1.697049
2008-06-13 05:09:10 51°15.618 2°41.2 20.3023 0.2741 1.718483 -1.697049
2008-06-13 05:09:15 51°15.626 2°41.177 20.3031 0.2741 1.718483 -1.697049
2008-06-13 05:09:19 51°15.631 2°41.159 20.3216 0.297572 1.874504 -1.697049
2008-06-13 05:09:25 51°15.639 2°41.132 20.3219 0.254644 1.589901 -1.697049
2008-06-13 05:09:30 51°15.647 2°41.109 20.3173 0.272453 1.707603 -1.697049
2008-06-13 05:09:35 51°15.654 2°41.087 20.3146 0.27863 1.748555 -1.697049
2008-06-13 05:09:39 51°15.659 2°41.068 20.3193 0.248982 1.552631 -1.697049
2008-06-13 05:09:45 51°15.667 2°41.04 20.3182 0.248982 1.552631 -1.697049
2008-06-13 05:09:50 51°15.675 2°41.017 20.3279 0.326192 2.066114 -1.697049
2008-06-13 05:09:55 51°15.681 2°40.995 20.3332 0.257526 1.609009 -1.697049
2008-06-13 05:09:59 51°15.687 2°40.977 20.3283 0.27513 1.72541 -1.697049
2008-06-13 05:10:05 51°15.695 2°40.949 20.3231 0.230659 1.432351 -1.697049
2008-06-13 05:10:10 51°15.702 2°40.927 20.3345 0.278733 1.749343 -1.697049
2008-06-13 05:10:15 51°15.709 2°40.905 20.3362 0.278733 1.749343 -1.697049
2008-06-13 05:10:19 51°15.715 2°40.886 20.3382 0.259379 1.621207 -1.697049
2008-06-13 05:10:25 51°15.724 2°40.858 20.3413 0.278012 1.744492 -1.697049
2008-06-13 05:10:30 51°15.731 2°40.835 20.3394 0.265865 1.664028 -1.697049
2008-06-13 05:10:35 51°15.739 2°40.812 20.3469 0.286042 1.797818 -1.697049
2008-06-13 05:10:40 51°15.746 2°40.788 20.3414 0.273894 1.717187 -1.697049
2008-06-13 05:10:45 51°15.753 2°40.765 20.3442 0.273894 1.717187 -1.697049
2008-06-13 05:10:50 51°15.76 2°40.741 20.3431 0.269159 1.685823 -1.697049
2008-06-13 05:10:55 51°15.767 2°40.718 20.3392 0.272659 1.709035 -1.697049
2008-06-13 05:11:00 51°15.774 2°40.694 20.3454 0.254747 1.590643 -1.697049
2008-06-13 05:11:05 51°15.781 2°40.67 20.3475 0.254953 1.592032 -1.697049
2008-06-13 05:11:10 51°15.789 2°40.647 20.3471 0.258041 1.612405 -1.697049
2008-06-13 05:11:15 51°15.796 2°40.623 20.3481 0.258041 1.612405 -1.697049
2008-06-13 05:11:20 51°15.803 2°40.599 20.3483 0.270703 1.696114 -1.697049
2008-06-13 05:11:25 51°15.81 2°40.576 20.3483 0.272968 1.71115 -1.697049
2008-06-13 05:11:30 51°15.818 2°40.552 20.3513 0.237865 1.479676 -1.697049
2008-06-13 05:11:35 51°15.825 2°40.529 20.3542 0.269468 1.688036 -1.697049
2008-06-13 05:11:40 51°15.832 2°40.506 20.348 0.234468 1.457452 -1.697049
2008-06-13 05:11:45 51°15.84 2°40.482 20.3575 0.234468 1.457452 -1.697049
2008-06-13 05:11:50 51°15.847 2°40.459 20.3618 0.253718 1.584014 -1.697049
2008-06-13 05:11:55 51°15.854 2°40.434 20.3589 0.259173 1.620009 -1.697049
2008-06-13 05:12:00 51°15.861 2°40.411 20.3615 0.247438 1.542653 -1.697049
2008-06-13 05:12:05 51°15.868 2°40.388 20.3606 0.293557 1.848046 -1.697049
2008-06-13 05:12:10 51°15.876 2°40.365 20.3615 0.249085 1.553494 -1.697049
2008-06-13 05:12:15 51°15.883 2°40.341 20.359 0.249085 1.553494 -1.697049
2008-06-13 05:12:19 51°15.889 2°40.323 20.3595 0.246409 1.535879 -1.697049
2008-06-13 05:12:25 51°15.897 2°40.294 20.3606 0.269879 1.690829 -1.697049
2008-06-13 05:12:30 51°15.905 2°40.271 20.3646 0.256497 1.602376 -1.697049
2008-06-13 05:12:35 51°15.912 2°40.247 20.3564 0.262365 1.641153 -1.697049
2008-06-13 05:12:40 51°15.919 2°40.224 20.3566 0.251865 1.571895 -1.697049
2008-06-13 05:12:45 51°15.926 2°40.199 20.36 0.251865 1.571895 -1.697049
2008-06-13 05:12:50 51°15.933 2°40.175 20.3638 0.261232 1.633704 -1.697049
2008-06-13 05:12:55 51°15.94 2°40.151 20.3659 0.238997 1.487316 -1.697049
2008-06-13 05:13:00 51°15.947 2°40.127 20.3618 0.259894 1.624961 -1.697049
2008-06-13 05:13:05 51°15.954 2°40.103 20.3628 0.237453 1.477268 -1.697049
2008-06-13 05:13:10 51°15.961 2°40.08 20.3665 0.264115 1.652918 -1.697049
2008-06-13 05:13:15 51°15.969 2°40.057 20.3666 0.264115 1.652918 -1.697049
2008-06-13 05:13:20 51°15.976 2°40.032 20.3669 0.252071 1.573409 -1.697049
2008-06-13 05:13:25 51°15.984 2°40.008 20.3692 0.252997 1.579484 -1.697049
2008-06-13 05:13:30 51°15.99 2°39.984 20.3712 0.251762 1.571405 -1.697049
2008-06-13 05:13:35 51°15.998 2°39.959 20.3729 0.257835 1.611464 -1.697049
2008-06-13 05:13:39 51°16.003 2°39.94 20.373 0.269262 1.687076 -1.697049
2008-06-13 05:13:45 51°16.012 2°39.911 20.3745 0.269262 1.687076 -1.697049
2008-06-13 05:13:50 51°16.019 2°39.887 20.3737 0.256909 1.605477 -1.697049
2008-06-13 05:13:55 51°16.027 2°39.864 20.3673 0.285115 1.792339 -1.697049
2008-06-13 05:13:59 51°16.033 2°39.844 20.3747 0.259173 1.620526 -1.697049
2008-06-13 05:14:05 51°16.042 2°39.816 20.3784 0.255365 1.595351 -1.697049
2008-06-13 05:14:10 51°16.049 2°39.792 20.3781 0.253409 1.582419 -1.697049
2008-06-13 05:14:15 51°16.056 2°39.768 20.3789 0.253409 1.582419 -1.697049
2008-06-13 05:14:19 51°16.062 2°39.749 20.3791 0.262879 1.644915 -1.697049
2008-06-13 05:14:25 51°16.071 2°39.72 20.3802 0.260512 1.629268 -1.697049
2008-06-13 05:14:30 51°16.078 2°39.696 20.381 0.269365 1.687825 -1.697049
2008-06-13 05:14:35 51°16.085 2°39.672 20.3845 0.243218 1.515346 -1.697049
2008-06-13 05:14:39 51°16.091 2°39.654 20.3839 0.255159 1.594025 -1.697049
2008-06-13 05:14:45 51°16.1 2°39.625 20.3849 0.255159 1.594025 -1.697049
2008-06-13 05:14:50 51°16.107 2°39.601 20.3859 0.25835 1.615119 -1.697049
2008-06-13 05:14:55 51°16.114 2°39.578 20.3893 0.261335 1.634873 -1.697049
2008-06-13 05:14:59 51°16.12 2°39.558 20.3872 0.263394 1.648581 -1.697049
2008-06-13 05:15:05 51°16.129 2°39.531 20.3918 0.250321 1.562283 -1.697049
2008-06-13 05:15:10 51°16.136 2°39.506 20.3872 0.255056 1.593505 -1.697049
2008-06-13 05:15:15 51°16.143 2°39.483 20.3818 0.255056 1.593505 -1.697049
2008-06-13 05:15:19 51°16.149 2°39.464 20.3853 0.270497 1.695663 -1.697049
2008-06-13 05:15:25 51°16.158 2°39.436 20.3855 0.261953 1.639053 -1.697049
2008-06-13 05:15:30 51°16.164 2°39.412 20.3865 0.262776 1.644497 -1.697049
2008-06-13 05:15:35 51°16.172 2°39.388 20.3857 0.241262 1.50267 -1.697049
2008-06-13 05:15:39 51°16.177 2°39.369 20.3894 0.256703 1.604342 -1.697049
2008-06-13 05:15:43 51°16.183 2°39.35 20.3903 0.256703 1.604342 -1.697049
2008-06-13 05:15:50 51°16.193 2°39.317 20.3939 0.250938 1.566322 -1.697049
2008-06-13 05:15:55 51°16.2 2°39.292 20.3917 0.264424 1.655356 -1.697049
2008-06-13 05:15:59 51°16.206 2°39.273 20.3873 0.262674 1.643816 -1.697049
2008-06-13 05:16:05 51°16.214 2°39.244 20.3895 0.254953 1.592857 -1.697049
2008-06-13 05:16:10 51°16.221 2°39.22 20.391 0.240027 1.494582 -1.697049
2008-06-13 05:16:14 51°16.227 2°39.201 20.3928 0.240027 1.494582 -1.697049
2008-06-13 05:16:19 51°16.234 2°39.177 20.3924 0.255982 1.599682 -1.697049
2008-06-13 05:16:25 51°16.243 2°39.148 20.395 0.263909 1.652084 -1.697049
2008-06-13 05:16:30 51°16.25 2°39.124 20.3963 0.252379 1.57601 -1.697049
2008-06-13 05:16:35 51°16.258 2°39.1 20.3974 0.250629 1.564536 -1.697049
2008-06-13 05:16:40 51°16.265 2°39.076 20.3971 0.258659 1.617546 -1.697049
2008-06-13 05:16:45 51°16.272 2°39.052 20.3972 0.258659 1.617546 -1.697049
2008-06-13 05:16:50 51°16.28 2°39.028 20.3977 0.243835 1.519862 -1.697049
2008-06-13 05:16:55 51°16.287 2°39.004 20.3984 0.257732 1.611491 -1.697049
2008-06-13 05:16:59 51°16.294 2°38.986 20.3995 0.249909 1.559912 -1.697049
2008-06-13 05:17:05 51°16.303 2°38.958 20.4002 0.26185 1.638764 -1.697049
2008-06-13 05:17:10 51°16.31 2°38.934 20.4016 0.267306 1.674863 -1.697049
2008-06-13 05:17:15 51°16.318 2°38.911 20.4005 0.267306 1.674863 -1.697049
2008-06-13 05:17:19 51°16.324 2°38.892 20.4032 0.252482 1.577003 -1.697049
2008-06-13 05:17:25 51°16.333 2°38.865 20.3944 0.2706 1.696751 -1.697049
2008-06-13 05:17:30 51°16.341 2°38.842 20.4092 0.2671 1.673567 -1.697049
2008-06-13 05:17:35 51°16.348 2°38.819 20.4068 0.276674 1.73693 -1.697049
2008-06-13 05:17:39 51°16.353 2°38.801 20.3773 0.241468 1.504323 -1.697049
2008-06-13 05:17:43 51°16.359 2°38.782 20.3847 0.241468 1.504323 -1.697049
2008-06-13 05:17:50 51°16.369 2°38.75 20.389 0.279453 1.755315 -1.697049
2008-06-13 05:17:55 51°16.377 2°38.729 20.3987 0.260615 1.630468 -1.697049
2008-06-13 05:17:59 51°16.383 2°38.71 20.3927 0.257938 1.612819 -1.697049
2008-06-13 05:18:05 51°16.392 2°38.683 20.4019 0.254644 1.591042 -1.697049
2008-06-13 05:18:10 51°16.399 2°38.66 20.4029 0.248982 1.553776 -1.697049
2008-06-13 05:18:15 51°16.407 2°38.637 20.4004 0.248982 1.553776 -1.697049
2008-06-13 05:18:19 51°16.413 2°38.621 20.3838 0.2531 1.58095 -1.697049
2008-06-13 05:18:25 51°16.421 2°38.592 20.406 0.299013 1.885731 -1.697049
2008-06-13 05:18:30 51°16.429 2°38.571 20.3723 0.216145 1.33863 -1.697049
2008-06-13 05:18:35 51°16.436 2°38.548 20.3626 0.280997 1.765749 -1.697049
2008-06-13 05:18:39 51°16.443 2°38.532 20.3665 0.211616 1.309097 -1.697049
2008-06-13 05:18:45 51°16.45 2°38.502 20.39 0.211616 1.309097 -1.697049
2008-06-13 05:18:50 51°16.46 2°38.483 20.353 0.290777 1.830779 -1.697049
2008-06-13 05:18:55 51°16.465 2°38.459 20.3902 0.237968 1.481473 -1.697049
2008-06-13 05:18:59 51°16.473 2°38.444 20.3736 0.267203 1.674248 -1.697049
2008-06-13 05:19:05 51°16.481 2°38.417 20.3693 0.273174 1.713676 -1.697049
2008-06-13 05:19:10 51°16.489 2°38.395 20.3719 0.248262 1.548999 -1.697049
2008-06-13 05:19:15 51°16.497 2°38.373 20.3779 0.248262 1.548999 -1.697049
2008-06-13 05:19:19 51°16.504 2°38.356 20.3893 0.276983 1.738876 -1.697049
2008-06-13 05:19:25 51°16.512 2°38.329 20.3776 0.238277 1.483324 -1.697049
2008-06-13 05:19:30 51°16.521 2°38.308 20.3757 0.276365 1.734846 -1.697049
2008-06-13 05:19:35 51°16.529 2°38.286 20.3704 0.226336 1.405148 -1.697049
2008-06-13 05:19:39 51°16.535 2°38.268 20.3862 0.275336 1.728118 -1.697049
2008-06-13 05:19:45 51°16.546 2°38.243 20.3967 0.275336 1.728118 -1.697049
2008-06-13 05:19:50 51°16.553 2°38.22 20.3927 0.242394 1.510594 -1.697049
2008-06-13 05:19:55 51°16.562 2°38.2 20.3806 0.255982 1.600097 -1.697049
2008-06-13 05:19:59 51°16.567 2°38.182 20.3673 0.280689 1.763908 -1.697049
2008-06-13 05:20:05 51°16.577 2°38.157 20.337 0.267718 1.677891 -1.697049
2008-06-13 05:20:10 51°16.586 2°38.136 20.3465 0.253923 1.586699 -1.697049
2008-06-13 05:20:15 51°16.594 2°38.114 20.3504 0.253923 1.586699 -1.697049
2008-06-13 05:20:19 51°16.6 2°38.097 20.3657 0.264629 1.657478 -1.697049
2008-06-13 05:20:25 51°16.611 2°38.071 20.3648 0.267306 1.675231 -1.697049
2008-06-13 05:20:30 51°16.619 2°38.051 20.3844 0.294895 1.858631 -1.697049
2008-06-13 05:20:35 51°16.626 2°38.03 20.3776 0.253924 1.586889 -1.697049
2008-06-13 05:20:39 51°16.632 2°38.014 20.371 0.247953 1.54752 -1.697049
2008-06-13 05:20:45 51°16.641 2°37.99 20.3699 0.247953 1.54752 -1.697049
2008-06-13 05:20:50 51°16.649 2°37.97 20.3819 0.250424 1.563834 -1.697049
2008-06-13 05:20:55 51°16.657 2°37.95 20.3897 0.270394 1.695861 -1.697049
2008-06-13 05:20:59 51°16.662 2°37.935 20.3831 0.25485 1.593036 -1.697049
2008-06-13 05:21:05 51°16.671 2°37.911 20.3896 0.250526 1.564544 -1.697049
2008-06-13 05:21:10 51°16.678 2°37.891 20.3876 0.264012 1.653589 -1.697049
2008-06-13 05:21:15 51°16.685 2°37.872 20.3883 0.264012 1.653589 -1.697049
2008-06-13 05:21:19 51°16.69 2°37.856 20.3875 0.264629 1.657644 -1.697049
2008-06-13 05:21:25 51°16.699 2°37.833 20.3908 0.257423 1.609998 -1.697049
2008-06-13 05:21:30 51°16.706 2°37.813 20.3975 0.257012 1.607278 -1.697049
2008-06-13 05:21:35 51°16.713 2°37.794 20.393 0.252071 1.574633 -1.697049
2008-06-13 05:21:39 51°16.719 2°37.778 20.3966 0.255879 1.599768 -1.697049
2008-06-13 05:21:45 51°16.727 2°37.754 20.3989 0.255879 1.599768 -1.697049
2008-06-13 05:21:50 51°16.734 2°37.734 20.4002 0.269262 1.688288 -1.697049
2008-06-13 05:21:55 51°16.741 2°37.715 20.4012 0.261026 1.633842 -1.697049
2008-06-13 05:21:59 51°16.747 2°37.7 20.3981 0.25135 1.569943 -1.697049
2008-06-13 05:22:05 51°16.755 2°37.677 20.4023 0.244968 1.527891 -1.697049
2008-06-13 05:22:10 51°16.761 2°37.658 20.4048 0.275438 1.729354 -1.697049
2008-06-13 05:22:15 51°16.768 2°37.641 20.4033 0.275438 1.729354 -1.697049
2008-06-13 05:22:19 51°16.773 2°37.628 20.4056 0.261644 1.638024 -1.697049
2008-06-13 05:22:23 51°16.777 2°37.615 20.4059 0.272144 1.707566 -1.697049
2008-06-13 05:22:30 51°16.785 2°37.595 20.4077 0.260306 1.629207 -1.697049
2008-06-13 05:22:35 51°16.792 2°37.583 20.4079 0.257012 1.607438 -1.697049
2008-06-13 05:22:39 51°16.797 2°37.574 20.4089 0.250629 1.565347 -1.697049
2008-06-13 05:22:45 51°16.805 2°37.562 20.4103 0.250629 1.565347 -1.697049
2008-06-13 05:22:50 51°16.812 2°37.555 20.4116 0.252585 1.57828 -1.697049
2008-06-13 05:22:55 51°16.818 2°37.549 20.4184 0.261953 1.640198 -1.697049
2008-06-13 05:22:59 51°16.823 2°37.545 20.4183 0.272556 1.710468 -1.697049
2008-06-13 05:23:05 51°16.83 2°37.543 20.4172 0.279144 1.754279 -1.697049
2008-06-13 05:23:10 51°16.836 2°37.541 20.4199 0.253821 1.58659 -1.697049
2008-06-13 05:23:15 51°16.841 2°37.541 20.4188 0.253821 1.58659 -1.697049
2008-06-13 05:23:19 51°16.845 2°37.541 20.4189 0.226851 1.409303 -1.697049
2008-06-13 05:23:25 51°16.852 2°37.542 20.4194 0.238997 1.489066 -1.697049
2008-06-13 05:23:30 51°16.857 2°37.543 20.425 0.257012 1.607823 -1.697049
2008-06-13 05:23:35 51°16.863 2°37.545 20.4226 0.247438 1.544684 -1.697049
2008-06-13 05:23:39 51°16.867 2°37.545 20.4187 0.255262 1.596295 -1.697049
2008-06-13 05:23:45 51°16.874 2°37.546 20.4195 0.255262 1.596295 -1.697049
2008-06-13 05:23:50 51°16.879 2°37.547 20.4217 0.256497 1.604487 -1.697049
2008-06-13 05:23:55 51°16.885 2°37.546 20.4259 0.252174 1.575972 -1.697049
2008-06-13 05:23:59 51°16.889 2°37.546 20.4227 0.254335 1.590241 -1.697049
2008-06-13 05:24:05 51°16.896 2°37.544 20.4237 0.261129 1.635175 -1.697049
2008-06-13 05:24:10 51°16.902 2°37.543 20.4243 0.255571 1.598431 -1.697049
2008-06-13 05:24:15 51°16.908 2°37.542 20.4246 0.255571 1.598431 -1.697049
2008-06-13 05:24:19 51°16.912 2°37.54 20.4229 0.258144 1.615467 -1.697049
2008-06-13 05:24:23 51°16.917 2°37.539 20.4239 0.252174 1.576035 -1.697049
2008-06-13 05:24:30 51°16.925 2°37.535 20.4256 0.248262 1.550235 -1.697049
2008-06-13 05:24:35 51°16.93 2°37.533 20.429 0.257321 1.610024 -1.697049
2008-06-13 05:24:39 51°16.935 2°37.532 20.4279 0.240644 1.500105 -1.697049
2008-06-13 05:24:45 51°16.942 2°37.529 20.4303 0.240644 1.500105 -1.697049
2008-06-13 05:24:50 51°16.948 2°37.528 20.4288 0.257218 1.609376 -1.697049
2008-06-13 05:24:55 51°16.954 2°37.526 20.4306 0.248056 1.548909 -1.697049
2008-06-13 05:24:59 51°16.959 2°37.526 20.4321 0.270291 1.695991 -1.697049
2008-06-13 05:25:05 51°16.965 2°37.526 20.4394 0.234777 1.461601 -1.697049
2008-06-13 05:25:10 51°16.97 2°37.526 20.4469 0.264012 1.654381 -1.697049
2008-06-13 05:25:15 51°16.974 2°37.526 20.435 0.264012 1.654381 -1.697049
2008-06-13 05:25:19 51°16.977 2°37.527 20.4332 0.265144 1.661946 -1.697049
2008-06-13 05:25:25 51°16.982 2°37.527 20.4362 0.254953 1.59451 -1.697049
2008-06-13 05:25:30 51°16.986 2°37.529 20.4442 0.257732 1.612907 -1.697049
2008-06-13 05:25:35 51°16.989 2°37.53 20.4387 0.251041 1.56872 -1.697049
2008-06-13 05:25:39 51°16.992 2°37.531 20.4372 0.247644 1.546349 -1.697049
2008-06-13 05:25:45 51°16.997 2°37.534 20.4443 0.247644 1.546349 -1.697049
2008-06-13 05:25:50 51°17 2°37.536 20.4427 0.256291 1.603447 -1.697049
2008-06-13 05:25:55 51°17.004 2°37.538 20.4413 0.256291 1.603479 -1.697049
2008-06-13 05:25:59 51°17.006 2°37.539 20.4389 0.244556 1.526063 -1.697049
2008-06-13 05:26:05 51°17.01 2°37.542 20.4467 0.263291 1.649776 -1.697049
2008-06-13 05:26:09 51°17.012 2°37.543 20.4376 0.261232 1.636183 -1.697049
2008-06-13 05:26:15 51°17.016 2°37.545 20.4395 0.261232 1.636183 -1.697049
2008-06-13 05:26:19 51°17.019 2°37.546 20.4409 0.248777 1.553907 -1.697049
2008-06-13 05:26:25 51°17.022 2°37.548 20.452 0.248571 1.552581 -1.697049
2008-06-13 05:26:30 51°17.025 2°37.55 20.4486 0.238791 1.488188 -1.697049
2008-06-13 05:26:35 51°17.028 2°37.552 20.4415 0.252791 1.580458 -1.697049
2008-06-13 05:26:39 51°17.031 2°37.553 20.4444 0.239306 1.491632 -1.697049
2008-06-13 05:26:43 51°17.033 2°37.555 20.4287 0.239306 1.491632 -1.697049
2008-06-13 05:26:50 51°17.036 2°37.557 20.4091 0.22366 1.388965 -1.697049
2008-06-13 05:26:55 51°17.038 2°37.558 20.4074 0.261232 1.636248 -1.697049
2008-06-13 05:26:59 51°17.04 2°37.559 20.424 0.27338 1.71672 -1.697049
2008-06-13 05:27:05 51°17.042 2°37.561 20.4241 0.276983 1.740683 -1.697049
2008-06-13 05:27:10 51°17.044 2°37.562 20.4323 0.249909 1.561437 -1.697049
2008-06-13 05:27:15 51°17.046 2°37.564 20.4283 0.249909 1.561437 -1.697049
2008-06-13 05:27:19 51°17.048 2°37.565 20.4266 0.230762 1.435511 -1.697049
2008-06-13 05:27:25 51°17.05 2°37.567 20.4291 0.254747 1.593405 -1.697049
2008-06-13 05:27:30 51°17.052 2°37.569 20.4328 0.247438 1.545177 -1.697049
2008-06-13 05:27:35 51°17.054 2°37.57 20.4316 0.246409 1.538393 -1.697049
2008-06-13 05:27:39 51°17.056 2°37.571 20.4375 0.256703 1.606328 -1.697049
2008-06-13 05:27:45 51°17.058 2°37.574 20.4407 0.256703 1.606328 -1.697049
2008-06-13 05:27:50 51°17.061 2°37.575 20.4359 0.262262 1.643126 -1.697049
2008-06-13 05:27:55 51°17.063 2°37.576 20.4387 0.249394 1.558105 -1.697049
2008-06-13 05:27:59 51°17.064 2°37.577 20.4391 0.265865 1.667019 -1.697049
2008-06-13 05:28:05 51°17.067 2°37.579 20.4406 0.255159 1.596221 -1.697049
2008-06-13 05:28:10 51°17.069 2°37.58 20.4422 0.248262 1.550699 -1.697049
2008-06-13 05:28:15 51°17.071 2°37.582 20.452 0.248262 1.550699 -1.697049
2008-06-13 05:28:19 51°17.072 2°37.583 20.4448 0.274924 1.727213 -1.697049
2008-06-13 05:28:25 51°17.074 2°37.584 20.4444 0.267512 1.678068 -1.697049
2008-06-13 05:28:30 51°17.076 2°37.586 20.4456 0.268541 1.684926 -1.697049
2008-06-13 05:28:35 51°17.078 2°37.588 20.4452 0.259585 1.625579 -1.697049
2008-06-13 05:28:39 51°17.079 2°37.589 20.4555 0.263394 1.65082 -1.697049
2008-06-13 05:28:45 51°17.081 2°37.592 20.4482 0.263394 1.65082 -1.697049
2008-06-13 05:28:50 51°17.083 2°37.593 20.4485 0.268747 1.686291 -1.697049
2008-06-13 05:28:55 51°17.085 2°37.595 20.4492 0.2636 1.652183 -1.697049
2008-06-13 05:28:59 51°17.086 2°37.596 20.4506 0.260821 1.633784 -1.697049
2008-06-13 05:29:05 51°17.088 2°37.598 20.4521 0.227983 1.417484 -1.697049
2008-06-13 05:29:10 51°17.089 2°37.6 20.4516 0.244556 1.526429 -1.697049
2008-06-13 05:29:15 51°17.091 2°37.602 20.4619 0.244556 1.526429 -1.697049
2008-06-13 05:29:19 51°17.092 2°37.604 20.4539 0.252585 1.579383 -1.697049
2008-06-13 05:29:25 51°17.094 2°37.606 20.4536 0.251865 1.574625 -1.697049
2008-06-13 05:29:29 51°17.096 2°37.608 20.4558 0.258968 1.621526 -1.697049
2008-06-13 05:29:35 51°17.097 2°37.61 20.4557 0.279659 1.758789 -1.697049
2008-06-13 05:29:39 51°17.098 2°37.612 20.4559 0.254026 1.5889 -1.697049
2008-06-13 05:29:45 51°17.1 2°37.616 20.4564 0.254026 1.5889 -1.697049
2008-06-13 05:29:49 51°17.101 2°37.618 20.4571 0.243938 1.52236 -1.697049
2008-06-13 05:29:55 51°17.102 2°37.622 20.4576 0.236424 1.472949 -1.697049
2008-06-13 05:29:59 51°17.103 2°37.624 20.4589 0.252894 1.581453 -1.697049
2008-06-13 05:30:05 51°17.105 2°37.628 20.4598 0.258865 1.620975 -1.697049
2008-06-13 05:30:09 51°17.106 2°37.632 20.4625 0.24085 1.502119 -1.697049
2008-06-13 05:30:15 51°17.109 2°37.637 20.4623 0.24085 1.502119 -1.697049
2008-06-13 05:30:19 51°17.112 2°37.641 20.4594 0.234056 1.457451 -1.697049
2008-06-13 05:30:25 51°17.117 2°37.646 20.4613 0.248674 1.553756 -1.697049
2008-06-13 05:30:29 51°17.121 2°37.649 20.4594 0.233439 1.45354 -1.697049
2008-06-13 05:30:35 51°17.126 2°37.651 20.4599 0.242497 1.513172 -1.697049
2008-06-13 05:30:39 51°17.13 2°37.652 20.4555 0.269056 1.688778 -1.697049
2008-06-13 05:30:45 51°17.135 2°37.652 20.4575 0.269056 1.688778 -1.697049
2008-06-13 05:30:49 51°17.138 2°37.652 20.45 0.261335 1.637681 -1.697049
2008-06-13 05:30:55 51°17.143 2°37.652 20.4544 0.251453 1.572347 -1.697049
2008-06-13 05:30:59 51°17.146 2°37.652 20.4582 0.257835 1.614522 -1.697049
2008-06-13 05:31:05 51°17.15 2°37.652 20.4621 0.230351 1.43344 -1.697049
2008-06-13 05:31:10 51°17.153 2°37.653 20.4614 0.234159 1.458419 -1.697049
2008-06-13 05:31:15 51°17.157 2°37.653 20.4635 0.234159 1.458419 -1.697049
2008-06-13 05:31:19 51°17.159 2°37.655 20.4648 0.250938 1.568887 -1.697049
2008-06-13 05:31:25 51°17.163 2°37.657 20.4649 0.242703 1.514558 -1.697049
2008-06-13 05:31:29 51°17.164 2°37.659 20.4654 0.231998 1.444164 -1.697049
2008-06-13 05:31:35 51°17.167 2°37.662 20.4688 0.251968 1.575651 -1.697049
2008-06-13 05:31:39 51°17.169 2°37.666 20.4672 0.254644 1.59333 -1.697049
2008-06-13 05:31:45 51°17.172 2°37.67 20.4675 0.254644 1.59333 -1.697049
2008-06-13 05:31:49 51°17.173 2°37.673 20.468 0.257629 1.613096 -1.697049
2008-06-13 05:31:55 51°17.175 2°37.677 20.4701 0.255571 1.599548 -1.697049
2008-06-13 05:31:59 51°17.176 2°37.68 20.4698 0.252585 1.579856 -1.697049
2008-06-13 05:32:05 51°17.177 2°37.683 20.4721 0.249394 1.558789 -1.697049
2008-06-13 05:32:09 51°17.178 2°37.686 20.4726 0.255468 1.598932 -1.697049
2008-06-13 05:32:15 51°17.178 2°37.689 20.4725 0.255468 1.598932 -1.697049
2008-06-13 05:32:19 51°17.178 2°37.69 20.4796 0.260718 1.633658 -1.697049
2008-06-13 05:32:25 51°17.178 2°37.693 20.4749 0.259482 1.625548 -1.697049
2008-06-13 05:32:29 51°17.178 2°37.693 20.4745 0.251041 1.569786 -1.697049
2008-06-13 05:32:35 51°17.177 2°37.695 20.4747 0.239306 1.492377 -1.697049
2008-06-13 05:32:39 51°17.177 2°37.697 20.4749 0.246512 1.539839 -1.697049
2008-06-13 05:32:45 51°17.177 2°37.698 20.4745 0.246512 1.539839 -1.697049
2008-06-13 05:32:49 51°17.176 2°37.7 20.476 0.239821 1.495764 -1.697049
2008-06-13 05:32:55 51°17.176 2°37.701 20.4767 0.2601 1.629635 -1.697049
2008-06-13 05:32:59 51°17.176 2°37.703 20.4796 0.260409 1.631679 -1.697049
2008-06-13 05:33:05 51°17.176 2°37.705 20.4773 0.250218 1.564349 -1.697049
2008-06-13 05:33:09 51°17.175 2°37.706 20.4779 0.248674 1.554221 -1.697049
2008-06-13 05:33:15 51°17.174 2°37.707 20.478 0.248674 1.554221 -1.697049
2008-06-13 05:33:19 51°17.174 2°37.709 20.4801 0.225924 1.404608 -1.697049
2008-06-13 05:33:25 51°17.173 2°37.711 20.4797 0.23138 1.440455 -1.697049
2008-06-13 05:33:29 51°17.172 2°37.712 20.4809 0.250629 1.567224 -1.697049
2008-06-13 05:33:35 51°17.172 2°37.713 20.4808 0.244041 1.523738 -1.697049
2008-06-13 05:33:39 51°17.171 2°37.714 20.4857 0.256394 1.605281 -1.697049
2008-06-13 05:33:45 51°17.17 2°37.716 20.4809 0.256394 1.605281 -1.697049
2008-06-13 05:33:49 51°17.17 2°37.716 20.4821 0.246512 1.540024 -1.697049
2008-06-13 05:33:55 51°17.169 2°37.717 20.4808 0.2356 1.468181 -1.697049
2008-06-13 05:33:59 51°17.168 2°37.719 20.4898 0.248571 1.553604 -1.697049
2008-06-13 05:34:03 51°17.168 2°37.719 20.4835 0.249806 1.561756 -1.697049
2008-06-13 05:34:09 51°17.167 2°37.72 20.4832 0.23488 1.463474 -1.697049
2008-06-13 05:34:15 51°17.165 2°37.721 20.4829 0.23488 1.463474 -1.697049
2008-06-13 05:34:19 51°17.165 2°37.722 20.4837 0.231071 1.438427 -1.697049
2008-06-13 05:34:25 51°17.164 2°37.723 20.4861 0.249806 1.561787 -1.697049
2008-06-13 05:34:29 51°17.163 2°37.723 20.4854 0.2426 1.514304 -1.697049
2008-06-13 05:34:35 51°17.162 2°37.725 20.4869 0.2461 1.537401 -1.697049
2008-06-13 05:34:39 51°17.161 2°37.725 20.487 0.244968 1.529936 -1.697049
2008-06-13 05:34:45 51°17.16 2°37.726 20.4904 0.244968 1.529936 -1.697049
2008-06-13 05:34:49 51°17.159 2°37.727 20.4883 0.245688 1.534717 -1.697049
2008-06-13 05:34:55 51°17.158 2°37.728 20.4897 0.238894 1.489995 -1.662225
2008-06-13 05:34:59 51°17.157 2°37.728 20.4883 0.253718 1.58778 -1.697049
2008-06-13 05:35:05 51°17.156 2°37.729 20.4892 0.232512 1.448064 -1.697049
2008-06-13 05:35:09 51°17.155 2°37.729 20.4897 0.226439 1.408207 -1.697049
2008-06-13 05:35:15 51°17.154 2°37.73 20.4923 0.226439 1.408207 -1.697049
2008-06-13 05:35:19 51°17.153 2°37.731 20.4931 0.245997 1.536845 -1.697049
2008-06-13 05:35:25 51°17.152 2°37.732 20.4948 0.233645 1.455532 -1.697049
2008-06-13 05:35:29 51°17.151 2°37.731 20.4951 0.23735 1.479925 -1.697049
2008-06-13 05:35:35 51°17.15 2°37.732 20.494 0.247644 1.547739 -1.697049
2008-06-13 05:35:39 51°17.149 2°37.733 20.5049 0.248262 1.551815 -1.697049
2008-06-13 05:35:45 51°17.148 2°37.734 20.4935 0.248262 1.551815 -1.697049
2008-06-13 05:35:49 51°17.147 2°37.734 20.495 0.244762 1.528731 -1.697049
2008-06-13 05:35:55 51°17.145 2°37.735 20.4955 0.264321 1.658049 -1.697049
2008-06-13 05:35:59 51°17.144 2°37.735 20.4963 0.237762 1.482693 -1.697049
2008-06-13 05:36:05 51°17.143 2°37.736 20.4974 0.230042 1.431956 -1.697049